Wetterdaten: Donnerstag, 22.12.2022
Datum Zeit Temp. Aussen Temp. o. S. Temp +5cm Feuchte Auss Luftdruck Regen Sonnenschein Regendauer Solar Windben Empfang
22.12.2022 00:00 8,0 C 7,2 C 5,6 C 98 % 1006,5 hPa 0,0 l/m 0 min 0 min 0 W/m 6,4 km/h (2 Bft) 100,00 %
22.12.2022 00:02 8,0 C 7,2 C 5,6 C 98 % 1006,4 hPa 0,0 l/m 0 min 0 min 0 W/m 6,4 km/h (2 Bft) 100,00 %
22.12.2022 00:04 8,0 C 7,2 C 5,6 C 98 % 1006,4 hPa 0,0 l/m 0 min 0 min 0 W/m 6,4 km/h (2 Bft) 97,83 %
22.12.2022 00:08 8,0 C 7,2 C 5,6 C 98 % 1006,4 hPa 0,0 l/m 0 min 0 min 0 W/m 6,4 km/h (2 Bft) 97,92 %
22.12.2022 00:10 8,0 C 7,2 C 5,6 C 98 % 1006,3 hPa 0,0 l/m 0 min 0 min 0 W/m 3,2 km/h (1 Bft) 97,87 %
22.12.2022 00:12 8,0 C 7,2 C 5,6 C 98 % 1006,3 hPa 0,0 l/m 0 min 0 min 0 W/m 6,4 km/h (2 Bft) 97,87 %
22.12.2022 00:14 8,0 C 7,2 C 5,6 C 98 % 1006,3 hPa 0,0 l/m 0 min 0 min 0 W/m 6,4 km/h (2 Bft) 100,00 %
22.12.2022 00:16 8,0 C 7,2 C 5,6 C 98 % 1006,3 hPa 0,0 l/m 0 min 0 min 0 W/m 12,9 km/h (3 Bft) 97,83 %
22.12.2022 00:18 8,1 C 7,2 C 5,6 C 98 % 1006,2 hPa 0,0 l/m 0 min 0 min 0 W/m 3,2 km/h (1 Bft) 95,74 %
22.12.2022 00:20 8,1 C 7,2 C 5,6 C 98 % 1006,2 hPa 0,0 l/m 0 min 0 min 0 W/m 12,9 km/h (3 Bft) 100,00 %
22.12.2022 00:22 8,1 C 7,2 C 5,6 C 98 % 1006,1 hPa 0,0 l/m 0 min 0 min 0 W/m 6,4 km/h (2 Bft) 95,74 %
22.12.2022 00:24 8,1 C 7,2 C 5,6 C 98 % 1006,1 hPa 0,0 l/m 0 min 0 min 0 W/m 3,2 km/h (1 Bft) 100,00 %
22.12.2022 00:26 8,1 C 7,2 C 5,6 C 98 % 1006,0 hPa 0,0 l/m 0 min 0 min 0 W/m 6,4 km/h (2 Bft) 100,00 %
22.12.2022 00:28 8,1 C 7,2 C 5,6 C 98 % 1006,0 hPa 0,0 l/m 0 min 0 min 0 W/m 6,4 km/h (2 Bft) 100,00 %
22.12.2022 00:30 8,1 C 7,2 C 5,6 C 98 % 1006,0 hPa 0,0 l/m 0 min 0 min 0 W/m 3,2 km/h (1 Bft) 100,00 %
22.12.2022 00:32 8,1 C 7,2 C 5,6 C 98 % 1005,9 hPa 0,0 l/m 0 min 0 min 0 W/m 6,4 km/h (2 Bft) 100,00 %
22.12.2022 00:34 8,1 C 7,2 C 5,6 C 98 % 1005,9 hPa 0,0 l/m 0 min 0 min 0 W/m 3,2 km/h (1 Bft) 100,00 %
22.12.2022 00:36 8,1 C 7,2 C 5,6 C 98 % 1005,9 hPa 0,0 l/m 0 min 0 min 0 W/m 3,2 km/h (1 Bft) 97,87 %
22.12.2022 00:38 8,1 C 7,2 C 5,6 C 98 % 1005,9 hPa 0,0 l/m 0 min 0 min 0 W/m 6,4 km/h (2 Bft) 100,00 %
22.12.2022 00:40 8,1 C 7,2 C 5,6 C 98 % 1005,8 hPa 0,0 l/m 0 min 0 min 0 W/m 6,4 km/h (2 Bft) 100,00 %
22.12.2022 00:42 8,1 C 7,2 C 5,6 C 98 % 1005,8 hPa 0,0 l/m 0 min 0 min 0 W/m 6,4 km/h (2 Bft) 97,87 %
22.12.2022 00:44 8,1 C 7,2 C 5,6 C 98 % 1005,8 hPa 0,0 l/m 0 min 0 min 0 W/m 6,4 km/h (2 Bft) 100,00 %
22.12.2022 00:46 8,1 C 7,2 C 5,6 C 98 % 1005,8 hPa 0,0 l/m 0 min 0 min 0 W/m 6,4 km/h (2 Bft) 100,00 %
22.12.2022 00:48 8,1 C 7,2 C 5,6 C 98 % 1005,8 hPa 0,0 l/m 0 min 0 min 0 W/m 6,4 km/h (2 Bft) 97,87 %
22.12.2022 00:50 8,1 C 7,2 C 5,6 C 98 % 1005,8 hPa 0,0 l/m 0 min 2 min 0 W/m 6,4 km/h (2 Bft) 100,00 %
22.12.2022 00:52 8,1 C 7,2 C 5,6 C 98 % 1005,8 hPa 0,0 l/m 0 min 2 min 0 W/m 6,4 km/h (2 Bft) 100,00 %
22.12.2022 00:54 8,1 C 7,2 C 5,6 C 98 % 1005,7 hPa 0,0 l/m 0 min 0 min 0 W/m 6,4 km/h (2 Bft) 97,87 %
22.12.2022 00:56 8,1 C 7,2 C 5,6 C 98 % 1005,7 hPa 0,0 l/m 0 min 0 min 0 W/m 6,4 km/h (2 Bft) 93,48 %
22.12.2022 00:58 8,1 C 7,2 C 5,6 C 98 % 1005,7 hPa 0,0 l/m 0 min 2 min 0 W/m 6,4 km/h (2 Bft) 97,87 %
22.12.2022 01:00 8,1 C 7,2 C 5,6 C 98 % 1005,7 hPa 0,2 l/m 0 min 2 min 0 W/m 3,2 km/h (1 Bft) 95,74 %
22.12.2022 01:02 8,1 C 7,2 C 5,6 C 98 % 1005,7 hPa 0,0 l/m 0 min 0 min 0 W/m 6,4 km/h (2 Bft) 97,87 %
22.12.2022 01:04 8,1 C 7,2 C 5,6 C 99 % 1005,7 hPa 0,0 l/m 0 min 0 min 0 W/m 6,4 km/h (2 Bft) 97,87 %
22.12.2022 01:06 8,1 C 7,2 C 5,6 C 99 % 1005,6 hPa 0,0 l/m 0 min 0 min 0 W/m 6,4 km/h (2 Bft) 95,74 %
22.12.2022 01:08 8,1 C 7,2 C 5,6 C 99 % 1005,6 hPa 0,0 l/m 0 min 0 min 0 W/m 6,4 km/h (2 Bft) 93,48 %
22.12.2022 01:10 8,1 C 7,2 C 5,6 C 99 % 1005,6 hPa 0,0 l/m 0 min 0 min 0 W/m 6,4 km/h (2 Bft) 97,87 %
22.12.2022 01:12 8,1 C 7,2 C 5,6 C 99 % 1005,5 hPa 0,0 l/m 0 min 0 min 0 W/m 6,4 km/h (2 Bft) 97,87 %
22.12.2022 01:14 8,1 C 7,2 C 5,6 C 99 % 1005,4 hPa 0,0 l/m 0 min 0 min 0 W/m 6,4 km/h (2 Bft) 95,74 %
22.12.2022 01:16 8,1 C 7,2 C 5,6 C 99 % 1005,4 hPa 0,0 l/m 0 min 0 min 0 W/m 6,4 km/h (2 Bft) 93,62 %
22.12.2022 01:18 8,1 C 7,2 C 5,6 C 99 % 1005,3 hPa 0,0 l/m 0 min 0 min 0 W/m 6,4 km/h (2 Bft) 91,49 %
22.12.2022 01:20 8,1 C 7,2 C 5,6 C 99 % 1005,2 hPa 0,0 l/m 0 min 2 min 0 W/m 9,7 km/h (2 Bft) 93,62 %
22.12.2022 01:22 8,1 C 7,2 C 5,6 C 99 % 1005,2 hPa 0,2 l/m 0 min 2 min 0 W/m 3,2 km/h (1 Bft) 95,65 %
22.12.2022 01:24 8,1 C 7,2 C 5,6 C 99 % 1005,1 hPa 0,0 l/m 0 min 2 min 0 W/m 6,4 km/h (2 Bft) 95,74 %
22.12.2022 01:26 8,1 C 7,2 C 5,6 C 99 % 1005,1 hPa 0,0 l/m 0 min 0 min 0 W/m 6,4 km/h (2 Bft) 93,62 %
22.12.2022 01:28 8,1 C 7,2 C 5,6 C 99 % 1005,1 hPa 0,0 l/m 0 min 0 min 0 W/m 3,2 km/h (1 Bft) 93,62 %
22.12.2022 01:30 8,1 C 7,2 C 5,6 C 99 % 1005,1 hPa 0,0 l/m 0 min 0 min 0 W/m 3,2 km/h (1 Bft) 93,62 %
22.12.2022 01:32 8,1 C 7,2 C 5,6 C 99 % 1005,1 hPa 0,0 l/m 0 min 0 min 0 W/m 3,2 km/h (1 Bft) 95,74 %
22.12.2022 01:34 8,1 C 7,2 C 5,6 C 99 % 1005,1 hPa 0,0 l/m 0 min 0 min 0 W/m 6,4 km/h (2 Bft) 86,96 %
22.12.2022 01:36 8,1 C 7,2 C 5,6 C 99 % 1005,1 hPa 0,0 l/m 0 min 0 min 0 W/m 6,4 km/h (2 Bft) 95,74 %
22.12.2022 01:38 8,1 C 7,2 C 5,6 C 99 % 1005,1 hPa 0,0 l/m 0 min 0 min 0 W/m 6,4 km/h (2 Bft) 95,74 %
22.12.2022 01:40 8,1 C 7,2 C 5,6 C 99 % 1005,0 hPa 0,0 l/m 0 min 0 min 0 W/m 3,2 km/h (1 Bft) 91,49 %
22.12.2022 01:42 8,1 C 7,2 C 5,6 C 99 % 1005,0 hPa 0,0 l/m 0 min 2 min 0 W/m 0,0 km/h (0 Bft) 95,74 %
22.12.2022 01:44 8,1 C 7,2 C 5,6 C 99 % 1005,0 hPa 0,0 l/m 0 min 0 min 0 W/m 0,0 km/h (0 Bft) 95,74 %
22.12.2022 01:46 8,1 C 7,2 C 5,6 C 99 % 1005,0 hPa 0,0 l/m 0 min 0 min 0 W/m 0,0 km/h (0 Bft) 93,62 %
22.12.2022 01:48 8,2 C 7,2 C 5,6 C 99 % 1005,0 hPa 0,0 l/m 0 min 0 min 0 W/m 0,0 km/h (0 Bft) 93,48 %
22.12.2022 01:50 8,2 C 7,2 C 5,6 C 99 % 1004,9 hPa 0,0 l/m 0 min 0 min 0 W/m 0,0 km/h (0 Bft) 95,74 %
22.12.2022 01:52 8,2 C 7,2 C 5,6 C 99 % 1004,9 hPa 0,0 l/m 0 min 0 min 0 W/m 3,2 km/h (1 Bft) 91,49 %
22.12.2022 01:54 8,2 C 7,2 C 5,6 C 99 % 1004,9 hPa 0,0 l/m 0 min 0 min 0 W/m 6,4 km/h (2 Bft) 93,62 %
22.12.2022 01:56 8,2 C 7,2 C 5,6 C 99 % 1004,9 hPa 0,0 l/m 0 min 0 min 0 W/m 3,2 km/h (1 Bft) 93,62 %
22.12.2022 01:58 8,2 C 7,2 C 5,6 C 99 % 1004,8 hPa 0,0 l/m 0 min 2 min 0 W/m 6,4 km/h (2 Bft) 93,62 %
22.12.2022 02:00 8,2 C 7,2 C 5,6 C 99 % 1004,8 hPa 0,0 l/m 0 min 2 min 0 W/m 3,2 km/h (1 Bft) 95,65 %
22.12.2022 02:02 8,2 C 7,2 C 5,6 C 99 % 1004,7 hPa 0,0 l/m 0 min 0 min 0 W/m 0,0 km/h (0 Bft) 97,87 %
22.12.2022 02:04 8,2 C 7,2 C 5,6 C 99 % 1004,7 hPa 0,0 l/m 0 min 0 min 0 W/m 6,4 km/h (2 Bft) 95,74 %
22.12.2022 02:06 8,2 C 7,2 C 5,6 C 99 % 1004,6 hPa 0,0 l/m 0 min 0 min 0 W/m 3,2 km/h (1 Bft) 97,87 %
22.12.2022 02:08 8,2 C 7,2 C 5,6 C 99 % 1004,6 hPa 0,0 l/m 0 min 0 min 0 W/m 3,2 km/h (1 Bft) 95,74 %
22.12.2022 02:10 8,2 C 7,2 C 5,6 C 99 % 1004,5 hPa 0,0 l/m 0 min 0 min 0 W/m 3,2 km/h (1 Bft) 95,74 %
22.12.2022 02:17 8,2 C 7,2 C 5,6 C 99 % 1004,4 hPa 0,0 l/m 0 min 5 min 0 W/m 3,2 km/h (1 Bft) 95,16 %
22.12.2022 02:18 8,2 C 7,2 C 5,6 C 99 % 1004,4 hPa 0,0 l/m 0 min 1 min 0 W/m 0,0 km/h (0 Bft) 95,65 %
22.12.2022 02:20 8,2 C 7,2 C 5,6 C 99 % 1004,4 hPa 0,0 l/m 0 min 0 min 0 W/m 6,4 km/h (2 Bft) 100,00 %
22.12.2022 02:22 8,2 C 7,2 C 5,6 C 99 % 1004,4 hPa 0,0 l/m 0 min 0 min 0 W/m 3,2 km/h (1 Bft) 95,74 %
22.12.2022 02:24 8,2 C 7,2 C 5,6 C 99 % 1004,3 hPa 0,2 l/m 0 min 0 min 0 W/m 6,4 km/h (2 Bft) 97,87 %
22.12.2022 02:26 8,2 C 7,2 C 5,6 C 99 % 1004,3 hPa 0,0 l/m 0 min 2 min 0 W/m 3,2 km/h (1 Bft) 100,00 %
22.12.2022 02:28 8,2 C 7,8 C 5,6 C 99 % 1004,4 hPa 0,0 l/m 0 min 2 min 0 W/m 6,4 km/h (2 Bft) 93,62 %
22.12.2022 02:30 8,2 C 7,8 C 5,6 C 99 % 1004,3 hPa 0,2 l/m 0 min 2 min 0 W/m 9,7 km/h (2 Bft) 100,00 %
22.12.2022 02:32 8,2 C 7,8 C 5,6 C 99 % 1004,3 hPa 0,0 l/m 0 min 0 min 0 W/m 6,4 km/h (2 Bft) 100,00 %
22.12.2022 02:34 8,2 C 7,8 C 5,6 C 99 % 1004,2 hPa 0,0 l/m 0 min 2 min 0 W/m 6,4 km/h (2 Bft) 95,74 %
22.12.2022 02:36 8,2 C 7,8 C 5,6 C 99 % 1004,2 hPa 0,2 l/m 0 min 2 min 0 W/m 6,4 km/h (2 Bft) 100,00 %
22.12.2022 02:38 8,3 C 7,8 C 5,6 C 99 % 1004,2 hPa 0,0 l/m 0 min 2 min 0 W/m 3,2 km/h (1 Bft) 100,00 %
22.12.2022 02:40 8,3 C 7,8 C 5,6 C 99 % 1004,1 hPa 0,0 l/m 0 min 0 min 0 W/m 6,4 km/h (2 Bft) 95,65 %
22.12.2022 02:42 8,3 C 7,8 C 5,6 C 99 % 1004,0 hPa 0,0 l/m 0 min 0 min 0 W/m 3,2 km/h (1 Bft) 95,74 %
22.12.2022 02:44 8,3 C 7,8 C 5,6 C 99 % 1004,0 hPa 0,0 l/m 0 min 0 min 0 W/m 3,2 km/h (1 Bft) 100,00 %
22.12.2022 02:46 8,3 C 7,8 C 6,1 C 99 % 1004,0 hPa 0,0 l/m 0 min 2 min 0 W/m 6,4 km/h (2 Bft) 97,87 %
22.12.2022 02:48 8,3 C 7,8 C 6,1 C 99 % 1004,0 hPa 0,0 l/m 0 min 0 min 0 W/m 3,2 km/h (1 Bft) 97,87 %
22.12.2022 02:50 8,3 C 7,8 C 6,1 C 99 % 1004,0 hPa 0,0 l/m 0 min 0 min 0 W/m 3,2 km/h (1 Bft) 97,87 %
22.12.2022 02:52 8,3 C 7,8 C 5,6 C 99 % 1004,0 hPa 0,0 l/m 0 min 0 min 0 W/m 3,2 km/h (1 Bft) 100,00 %
22.12.2022 02:54 8,3 C 7,8 C 6,1 C 99 % 1004,0 hPa 0,2 l/m 0 min 0 min 0 W/m 3,2 km/h (1 Bft) 100,00 %
22.12.2022 02:56 8,3 C 7,8 C 6,1 C 99 % 1004,0 hPa 0,0 l/m 0 min 0 min 0 W/m 3,2 km/h (1 Bft) 97,87 %
22.12.2022 02:58 8,3 C 7,8 C 6,1 C 99 % 1003,9 hPa 0,0 l/m 0 min 0 min 0 W/m 3,2 km/h (1 Bft) 97,87 %
22.12.2022 03:00 8,3 C 7,8 C 6,1 C 99 % 1003,9 hPa 0,0 l/m 0 min 0 min 0 W/m 3,2 km/h (1 Bft) 97,87 %
22.12.2022 03:02 8,3 C 7,8 C 6,1 C 99 % 1003,9 hPa 0,0 l/m 0 min 0 min 0 W/m 3,2 km/h (1 Bft) 95,74 %
22.12.2022 03:04 8,3 C 7,8 C 6,1 C 99 % 1003,8 hPa 0,0 l/m 0 min 0 min 0 W/m 6,4 km/h (2 Bft) 97,87 %
22.12.2022 03:06 8,3 C 7,8 C 6,1 C 99 % 1003,8 hPa 0,0 l/m 0 min 0 min 0 W/m 6,4 km/h (2 Bft) 95,65 %
22.12.2022 03:08 8,3 C 7,8 C 6,1 C 99 % 1003,8 hPa 0,0 l/m 0 min 0 min 0 W/m 6,4 km/h (2 Bft) 97,87 %
22.12.2022 03:10 8,3 C 7,8 C 6,1 C 99 % 1003,7 hPa 0,0 l/m 0 min 0 min 0 W/m 6,4 km/h (2 Bft) 97,87 %
22.12.2022 03:12 8,4 C 7,8 C 6,1 C 99 % 1003,7 hPa 0,0 l/m 0 min 0 min 0 W/m 6,4 km/h (2 Bft) 97,87 %
22.12.2022 03:14 8,3 C 7,8 C 6,1 C 99 % 1003,7 hPa 0,0 l/m 0 min 0 min 0 W/m 3,2 km/h (1 Bft) 97,87 %
22.12.2022 03:16 8,4 C 7,8 C 6,1 C 99 % 1003,6 hPa 0,0 l/m 0 min 0 min 0 W/m 12,9 km/h (3 Bft) 97,87 %
22.12.2022 03:18 8,4 C 7,8 C 6,1 C 99 % 1003,5 hPa 0,0 l/m 0 min 0 min 0 W/m 3,2 km/h (1 Bft) 97,83 %
22.12.2022 03:20 8,4 C 7,8 C 6,1 C 99 % 1003,4 hPa 0,0 l/m 0 min 0 min 0 W/m 12,9 km/h (3 Bft) 95,74 %
22.12.2022 03:22 8,4 C 7,8 C 6,1 C 99 % 1003,4 hPa 0,0 l/m 0 min 0 min 0 W/m 3,2 km/h (1 Bft) 97,87 %
22.12.2022 03:24 8,4 C 7,8 C 6,1 C 99 % 1003,4 hPa 0,0 l/m 0 min 0 min 0 W/m 12,9 km/h (3 Bft) 91,49 %
22.12.2022 03:26 8,4 C 7,8 C 6,1 C 99 % 1003,4 hPa 0,0 l/m 0 min 2 min 0 W/m 3,2 km/h (1 Bft) 63,04 %
22.12.2022 03:28 8,4 C 7,8 C 6,1 C 99 % 1003,3 hPa 0,0 l/m 0 min 2 min 0 W/m 6,4 km/h (2 Bft) 97,87 %
22.12.2022 03:30 8,4 C 7,8 C 6,1 C 99 % 1003,2 hPa 0,0 l/m 0 min 2 min 0 W/m 6,4 km/h (2 Bft) 100,00 %
22.12.2022 03:32 8,4 C 7,8 C 6,1 C 99 % 1003,2 hPa 0,0 l/m 0 min 2 min 0 W/m 6,4 km/h (2 Bft) 100,00 %
22.12.2022 03:34 8,4 C 7,8 C 6,1 C 99 % 1003,2 hPa 0,0 l/m 0 min 2 min 0 W/m 3,2 km/h (1 Bft) 100,00 %
22.12.2022 03:36 8,4 C 7,8 C 6,1 C 99 % 1003,1 hPa 0,0 l/m 0 min 2 min 0 W/m 6,4 km/h (2 Bft) 97,87 %
22.12.2022 03:38 8,4 C 7,8 C 6,1 C 99 % 1003,1 hPa 0,0 l/m 0 min 2 min 0 W/m 6,4 km/h (2 Bft) 97,87 %
22.12.2022 03:40 8,4 C 7,8 C 6,1 C 99 % 1003,1 hPa 0,0 l/m 0 min 2 min 0 W/m 6,4 km/h (2 Bft) 97,87 %
22.12.2022 03:42 8,4 C 7,8 C 6,1 C 99 % 1003,1 hPa 0,0 l/m 0 min 2 min 0 W/m 3,2 km/h (1 Bft) 100,00 %
22.12.2022 03:44 8,4 C 7,8 C 6,1 C 99 % 1003,0 hPa 0,0 l/m 0 min 0 min 0 W/m 6,4 km/h (2 Bft) 100,00 %
22.12.2022 03:46 8,4 C 7,8 C 6,1 C 99 % 1003,0 hPa 0,0 l/m 0 min 0 min 0 W/m 12,9 km/h (3 Bft) 95,74 %
22.12.2022 03:48 8,4 C 7,8 C 6,1 C 99 % 1003,0 hPa 0,0 l/m 0 min 0 min 0 W/m 6,4 km/h (2 Bft) 95,74 %
22.12.2022 03:50 8,4 C 7,8 C 6,1 C 99 % 1003,0 hPa 0,0 l/m 0 min 0 min 0 W/m 6,4 km/h (2 Bft) 100,00 %
22.12.2022 03:52 8,5 C 7,8 C 6,1 C 99 % 1002,9 hPa 0,0 l/m 0 min 0 min 0 W/m 6,4 km/h (2 Bft) 95,74 %
22.12.2022 03:54 8,5 C 7,8 C 6,1 C 99 % 1002,9 hPa 0,0 l/m 0 min 0 min 0 W/m 6,4 km/h (2 Bft) 97,87 %
22.12.2022 03:56 8,5 C 7,8 C 6,1 C 99 % 1002,9 hPa 0,0 l/m 0 min 0 min 0 W/m 6,4 km/h (2 Bft) 97,83 %
22.12.2022 03:58 8,5 C 7,8 C 6,1 C 99 % 1002,9 hPa 0,0 l/m 0 min 0 min 0 W/m 6,4 km/h (2 Bft) 97,87 %
22.12.2022 04:00 8,5 C 7,8 C 6,1 C 99 % 1002,8 hPa 0,0 l/m 0 min 0 min 0 W/m 0,0 km/h (0 Bft) 97,87 %
22.12.2022 04:02 8,5 C 7,8 C 6,1 C 99 % 1002,8 hPa 0,0 l/m 0 min 0 min 0 W/m 3,2 km/h (1 Bft) 93,62 %
22.12.2022 04:04 8,5 C 7,8 C 6,1 C 99 % 1002,8 hPa 0,0 l/m 0 min 0 min 0 W/m 6,4 km/h (2 Bft) 97,87 %
22.12.2022 04:06 8,5 C 7,8 C 6,1 C 99 % 1002,7 hPa 0,0 l/m 0 min 0 min 0 W/m 6,4 km/h (2 Bft) 97,87 %
22.12.2022 04:08 8,5 C 7,8 C 6,1 C 99 % 1002,7 hPa 0,0 l/m 0 min 0 min 0 W/m 9,7 km/h (2 Bft) 95,65 %
22.12.2022 04:10 8,5 C 7,8 C 6,1 C 99 % 1002,7 hPa 0,0 l/m 0 min 0 min 0 W/m 6,4 km/h (2 Bft) 97,87 %
22.12.2022 04:12 8,5 C 7,8 C 6,1 C 99 % 1002,7 hPa 0,0 l/m 0 min 0 min 0 W/m 6,4 km/h (2 Bft) 95,74 %
22.12.2022 04:14 8,5 C 7,8 C 6,1 C 99 % 1002,7 hPa 0,0 l/m 0 min 0 min 0 W/m 6,4 km/h (2 Bft) 97,87 %
22.12.2022 04:16 8,5 C 7,8 C 6,1 C 99 % 1002,7 hPa 0,0 l/m 0 min 0 min 0 W/m 3,2 km/h (1 Bft) 97,87 %
22.12.2022 04:18 8,5 C 7,8 C 6,1 C 99 % 1002,7 hPa 0,0 l/m 0 min 0 min 0 W/m 6,4 km/h (2 Bft) 95,74 %
22.12.2022 04:20 8,5 C 7,8 C 6,1 C 99 % 1002,6 hPa 0,0 l/m 0 min 0 min 0 W/m 12,9 km/h (3 Bft) 95,74 %
22.12.2022 04:22 8,5 C 7,8 C 6,1 C 99 % 1002,6 hPa 0,0 l/m 0 min 0 min 0 W/m 3,2 km/h (1 Bft) 93,48 %
22.12.2022 04:24 8,5 C 7,8 C 6,1 C 99 % 1002,6 hPa 0,0 l/m 0 min 0 min 0 W/m 12,9 km/h (3 Bft) 93,62 %
22.12.2022 04:26 8,5 C 7,8 C 6,1 C 99 % 1002,5 hPa 0,0 l/m 0 min 0 min 0 W/m 12,9 km/h (3 Bft) 95,74 %
22.12.2022 04:28 8,5 C 7,8 C 6,1 C 99 % 1002,5 hPa 0,0 l/m 0 min 2 min 0 W/m 3,2 km/h (1 Bft) 93,62 %
22.12.2022 04:30 8,5 C 7,8 C 6,1 C 99 % 1002,5 hPa 0,0 l/m 0 min 0 min 0 W/m 6,4 km/h (2 Bft) 95,74 %
22.12.2022 04:32 8,6 C 7,8 C 6,1 C 99 % 1002,4 hPa 0,0 l/m 0 min 0 min 0 W/m 6,4 km/h (2 Bft) 95,74 %
22.12.2022 04:34 8,5 C 7,8 C 6,1 C 99 % 1002,4 hPa 0,0 l/m 0 min 0 min 0 W/m 6,4 km/h (2 Bft) 93,48 %
22.12.2022 04:36 8,6 C 7,8 C 6,1 C 99 % 1002,4 hPa 0,0 l/m 0 min 0 min 0 W/m 9,7 km/h (2 Bft) 95,74 %
22.12.2022 04:38 8,6 C 7,8 C 6,1 C 99 % 1002,4 hPa 0,0 l/m 0 min 0 min 0 W/m 9,7 km/h (2 Bft) 97,87 %
22.12.2022 04:40 8,6 C 7,8 C 6,1 C 99 % 1002,3 hPa 0,0 l/m 0 min 0 min 0 W/m 6,4 km/h (2 Bft) 97,87 %
22.12.2022 04:42 8,6 C 7,8 C 6,1 C 99 % 1002,4 hPa 0,0 l/m 0 min 0 min 0 W/m 16,1 km/h (3 Bft) 95,74 %
22.12.2022 04:44 8,6 C 7,8 C 6,1 C 99 % 1002,4 hPa 0,0 l/m 0 min 0 min 0 W/m 6,4 km/h (2 Bft) 93,62 %
22.12.2022 04:46 8,6 C 7,8 C 6,1 C 99 % 1002,3 hPa 0,2 l/m 0 min 2 min 0 W/m 6,4 km/h (2 Bft) 93,48 %
22.12.2022 04:48 8,6 C 7,8 C 6,1 C 99 % 1002,3 hPa 0,0 l/m 0 min 2 min 0 W/m 6,4 km/h (2 Bft) 97,87 %
22.12.2022 04:50 8,6 C 7,8 C 6,1 C 99 % 1002,3 hPa 0,0 l/m 0 min 2 min 0 W/m 9,7 km/h (2 Bft) 95,74 %
22.12.2022 04:52 8,6 C 7,8 C 6,1 C 99 % 1002,3 hPa 0,2 l/m 0 min 2 min 0 W/m 6,4 km/h (2 Bft) 97,87 %
22.12.2022 04:54 8,6 C 7,8 C 6,1 C 99 % 1002,2 hPa 0,0 l/m 0 min 2 min 0 W/m 6,4 km/h (2 Bft) 95,74 %
22.12.2022 04:56 8,6 C 7,8 C 6,1 C 99 % 1002,2 hPa 0,0 l/m 0 min 2 min 0 W/m 6,4 km/h (2 Bft) 93,62 %
22.12.2022 04:58 8,6 C 7,8 C 6,1 C 99 % 1002,2 hPa 0,0 l/m 0 min 2 min 0 W/m 3,2 km/h (1 Bft) 78,72 %
22.12.2022 05:00 8,6 C 7,8 C 6,1 C 99 % 1002,1 hPa 0,2 l/m 0 min 2 min 0 W/m 6,4 km/h (2 Bft) 67,50 %
22.12.2022 05:02 8,6 C 7,8 C 6,1 C 99 % 1002,1 hPa 0,0 l/m 0 min 2 min 0 W/m 12,9 km/h (3 Bft) 93,62 %
22.12.2022 05:04 8,6 C 7,8 C 6,1 C 99 % 1002,1 hPa 0,0 l/m 0 min 2 min 0 W/m 6,4 km/h (2 Bft) 93,62 %
22.12.2022 05:06 8,6 C 7,8 C 6,1 C 99 % 1002,1 hPa 0,2 l/m 0 min 2 min 0 W/m 12,9 km/h (3 Bft) 95,74 %
22.12.2022 05:08 8,6 C 7,8 C 6,1 C 99 % 1002,1 hPa 0,0 l/m 0 min 2 min 0 W/m 0,0 km/h (0 Bft) 95,74 %
22.12.2022 05:10 8,6 C 7,8 C 6,1 C 99 % 1002,1 hPa 0,0 l/m 0 min 2 min 0 W/m 0,0 km/h (0 Bft) 97,87 %
22.12.2022 05:12 8,6 C 7,8 C 6,1 C 99 % 1002,0 hPa 0,2 l/m 0 min 2 min 0 W/m 0,0 km/h (0 Bft) 95,65 %
22.12.2022 05:14 8,6 C 7,8 C 6,1 C 99 % 1002,0 hPa 0,0 l/m 0 min 2 min 0 W/m 0,0 km/h (0 Bft) 97,87 %
22.12.2022 05:16 8,6 C 7,8 C 6,1 C 99 % 1002,0 hPa 0,0 l/m 0 min 2 min 0 W/m 6,4 km/h (2 Bft) 95,74 %
22.12.2022 05:18 8,6 C 7,8 C 6,1 C 99 % 1001,9 hPa 0,0 l/m 0 min 2 min 0 W/m 0,0 km/h (0 Bft) 95,74 %
22.12.2022 05:20 8,6 C 7,8 C 6,1 C 99 % 1002,0 hPa 0,2 l/m 0 min 2 min 0 W/m 0,0 km/h (0 Bft) 97,87 %
22.12.2022 05:22 8,6 C 7,8 C 6,1 C 99 % 1002,0 hPa 0,0 l/m 0 min 2 min 0 W/m 0,0 km/h (0 Bft) 97,87 %
22.12.2022 05:24 8,6 C 7,8 C 6,1 C 99 % 1001,9 hPa 0,0 l/m 0 min 2 min 0 W/m 0,0 km/h (0 Bft) 95,74 %
22.12.2022 05:26 8,6 C 7,8 C 6,1 C 99 % 1001,9 hPa 0,0 l/m 0 min 2 min 0 W/m 0,0 km/h (0 Bft) 95,65 %
22.12.2022 05:28 8,6 C 7,8 C 6,1 C 99 % 1002,0 hPa 0,0 l/m 0 min 2 min 0 W/m 0,0 km/h (0 Bft) 100,00 %
22.12.2022 05:30 8,6 C 7,8 C 6,1 C 99 % 1002,0 hPa 0,0 l/m 0 min 2 min 0 W/m 0,0 km/h (0 Bft) 100,00 %
22.12.2022 05:32 8,6 C 7,8 C 6,1 C 99 % 1001,9 hPa 0,0 l/m 0 min 2 min 0 W/m 0,0 km/h (0 Bft) 100,00 %
22.12.2022 05:34 8,6 C 7,8 C 6,1 C 99 % 1001,9 hPa 0,2 l/m 0 min 2 min 0 W/m 0,0 km/h (0 Bft) 100,00 %
22.12.2022 05:36 8,6 C 7,8 C 6,1 C 99 % 1001,9 hPa 0,0 l/m 0 min 2 min 0 W/m 0,0 km/h (0 Bft) 100,00 %
22.12.2022 05:38 8,6 C 7,8 C 6,1 C 99 % 1001,9 hPa 0,0 l/m 0 min 2 min 0 W/m 0,0 km/h (0 Bft) 100,00 %
22.12.2022 05:40 8,6 C 7,8 C 6,1 C 99 % 1001,9 hPa 0,0 l/m 0 min 2 min 0 W/m 0,0 km/h (0 Bft) 100,00 %
22.12.2022 05:42 8,6 C 7,8 C 6,1 C 99 % 1001,9 hPa 0,0 l/m 0 min 2 min 0 W/m 0,0 km/h (0 Bft) 97,87 %
22.12.2022 05:44 8,5 C 7,8 C 6,1 C 99 % 1001,9 hPa 0,2 l/m 0 min 2 min 0 W/m 0,0 km/h (0 Bft) 95,74 %
22.12.2022 05:46 8,5 C 7,8 C 6,1 C 99 % 1001,9 hPa 0,0 l/m 0 min 2 min 0 W/m 0,0 km/h (0 Bft) 97,87 %
22.12.2022 05:48 8,5 C 7,8 C 6,1 C 99 % 1001,9 hPa 0,0 l/m 0 min 2 min 0 W/m 0,0 km/h (0 Bft) 100,00 %
22.12.2022 05:50 8,5 C 7,8 C 6,1 C 99 % 1001,9 hPa 0,0 l/m 0 min 2 min 0 W/m 0,0 km/h (0 Bft) 97,83 %
22.12.2022 05:52 8,5 C 7,8 C 6,1 C 99 % 1001,8 hPa 0,0 l/m 0 min 2 min 0 W/m 0,0 km/h (0 Bft) 100,00 %
22.12.2022 05:54 8,5 C 7,8 C 6,1 C 99 % 1001,8 hPa 0,2 l/m 0 min 2 min 0 W/m 0,0 km/h (0 Bft) 100,00 %
22.12.2022 05:56 8,5 C 7,8 C 6,1 C 99 % 1001,8 hPa 0,0 l/m 0 min 2 min 0 W/m 0,0 km/h (0 Bft) 100,00 %
22.12.2022 05:58 8,5 C 7,8 C 6,1 C 99 % 1001,7 hPa 0,2 l/m 0 min 2 min 0 W/m 0,0 km/h (0 Bft) 97,87 %
22.12.2022 06:00 8,5 C 7,8 C 6,1 C 99 % 1001,7 hPa 0,0 l/m 0 min 2 min 0 W/m 0,0 km/h (0 Bft) 100,00 %
22.12.2022 06:02 8,5 C 7,8 C 6,1 C 99 % 1001,7 hPa 0,0 l/m 0 min 2 min 0 W/m 0,0 km/h (0 Bft) 97,87 %
22.12.2022 06:04 8,5 C 7,8 C 6,1 C 99 % 1001,8 hPa 0,2 l/m 0 min 2 min 0 W/m 0,0 km/h (0 Bft) 93,48 %
22.12.2022 06:08 8,5 C 7,8 C 6,1 C 99 % 1001,7 hPa 0,2 l/m 0 min 4 min 0 W/m 0,0 km/h (0 Bft) 99,00 %
22.12.2022 06:10 8,5 C 7,8 C 6,1 C 99 % 1001,8 hPa 0,2 l/m 0 min 2 min 0 W/m 0,0 km/h (0 Bft) 100,00 %
22.12.2022 06:12 8,5 C 7,8 C 6,1 C 99 % 1001,7 hPa 0,2 l/m 0 min 2 min 0 W/m 0,0 km/h (0 Bft) 97,87 %
22.12.2022 06:14 8,5 C 7,8 C 6,1 C 99 % 1001,7 hPa 0,0 l/m 0 min 2 min 0 W/m 0,0 km/h (0 Bft) 100,00 %
22.12.2022 06:16 8,5 C 7,8 C 6,1 C 99 % 1001,7 hPa 0,4 l/m 0 min 2 min 0 W/m 0,0 km/h (0 Bft) 93,48 %
22.12.2022 06:18 8,5 C 7,8 C 6,1 C 99 % 1001,6 hPa 0,0 l/m 0 min 2 min 0 W/m 0,0 km/h (0 Bft) 100,00 %
22.12.2022 06:20 8,5 C 7,8 C 6,1 C 99 % 1001,6 hPa 0,2 l/m 0 min 2 min 0 W/m 0,0 km/h (0 Bft) 100,00 %
22.12.2022 06:22 8,5 C 7,8 C 6,1 C 99 % 1001,7 hPa 0,2 l/m 0 min 2 min 0 W/m 0,0 km/h (0 Bft) 97,87 %
22.12.2022 06:24 8,5 C 7,8 C 6,1 C 99 % 1001,7 hPa 0,2 l/m 0 min 2 min 0 W/m 0,0 km/h (0 Bft) 97,87 %
22.12.2022 06:26 8,5 C 7,8 C 6,1 C 99 % 1001,6 hPa 0,0 l/m 0 min 2 min 0 W/m 0,0 km/h (0 Bft) 100,00 %
22.12.2022 06:28 8,5 C 7,8 C 6,1 C 99 % 1001,6 hPa 0,0 l/m 0 min 2 min 0 W/m 0,0 km/h (0 Bft) 100,00 %
22.12.2022 06:30 8,5 C 7,8 C 6,1 C 99 % 1001,6 hPa 0,0 l/m 0 min 0 min 0 W/m 0,0 km/h (0 Bft) 95,74 %
22.12.2022 06:32 8,5 C 7,8 C 6,1 C 99 % 1001,6 hPa 0,0 l/m 0 min 0 min 0 W/m 0,0 km/h (0 Bft) 95,65 %
22.12.2022 06:34 8,5 C 7,8 C 6,1 C 99 % 1001,6 hPa 0,0 l/m 0 min 0 min 0 W/m 0,0 km/h (0 Bft) 97,87 %
22.12.2022 06:36 8,5 C 7,8 C 6,1 C 99 % 1001,7 hPa 0,0 l/m 0 min 0 min 0 W/m 0,0 km/h (0 Bft) 95,74 %
22.12.2022 06:38 8,5 C 7,8 C 6,1 C 99 % 1001,7 hPa 0,0 l/m 0 min 0 min 0 W/m 0,0 km/h (0 Bft) 95,74 %
22.12.2022 06:40 8,5 C 7,8 C 6,1 C 99 % 1001,6 hPa 0,0 l/m 0 min 0 min 0 W/m 0,0 km/h (0 Bft) 95,74 %
22.12.2022 06:42 8,5 C 7,8 C 6,1 C 99 % 1001,7 hPa 0,0 l/m 0 min 0 min 0 W/m 0,0 km/h (0 Bft) 97,87 %
22.12.2022 06:44 8,5 C 7,8 C 6,1 C 99 % 1001,7 hPa 0,0 l/m 0 min 0 min 0 W/m 0,0 km/h (0 Bft) 97,83 %
22.12.2022 06:46 8,5 C 7,8 C 6,1 C 99 % 1001,7 hPa 0,0 l/m 0 min 0 min 0 W/m 0,0 km/h (0 Bft) 95,74 %
22.12.2022 06:48 8,5 C 7,8 C 6,1 C 99 % 1001,7 hPa 0,0 l/m 0 min 0 min 0 W/m 0,0 km/h (0 Bft) 97,87 %
22.12.2022 06:50 8,5 C 7,8 C 6,1 C 99 % 1001,7 hPa 0,0 l/m 0 min 0 min 0 W/m 0,0 km/h (0 Bft) 97,87 %
22.12.2022 06:52 8,5 C 7,8 C 6,1 C 99 % 1001,7 hPa 0,0 l/m 0 min 0 min 0 W/m 0,0 km/h (0 Bft) 95,74 %
22.12.2022 06:54 8,5 C 7,8 C 6,1 C 99 % 1001,7 hPa 0,0 l/m 0 min 0 min 0 W/m 0,0 km/h (0 Bft) 97,87 %
22.12.2022 06:56 8,5 C 7,8 C 6,1 C 99 % 1001,7 hPa 0,0 l/m 0 min 0 min 0 W/m 0,0 km/h (0 Bft) 95,65 %
22.12.2022 06:58 8,5 C 7,8 C 6,1 C 99 % 1001,8 hPa 0,2 l/m 0 min 0 min 0 W/m 0,0 km/h (0 Bft) 91,49 %
22.12.2022 07:00 8,5 C 7,8 C 6,1 C 99 % 1001,8 hPa 0,0 l/m 0 min 2 min 0 W/m 0,0 km/h (0 Bft) 93,62 %
22.12.2022 07:02 8,5 C 7,8 C 6,1 C 99 % 1001,7 hPa 0,0 l/m 0 min 2 min 0 W/m 0,0 km/h (0 Bft) 95,74 %
22.12.2022 07:04 8,5 C 7,8 C 6,1 C 99 % 1001,8 hPa 0,0 l/m 0 min 2 min 0 W/m 0,0 km/h (0 Bft) 93,62 %
22.12.2022 07:06 8,5 C 7,8 C 6,1 C 99 % 1001,8 hPa 0,2 l/m 0 min 2 min 0 W/m 0,0 km/h (0 Bft) 95,74 %
22.12.2022 07:08 8,5 C 7,8 C 6,1 C 99 % 1001,8 hPa 0,0 l/m 0 min 2 min 0 W/m 0,0 km/h (0 Bft) 93,62 %
22.12.2022 07:10 8,5 C 7,8 C 6,1 C 99 % 1001,8 hPa 0,0 l/m 0 min 2 min 0 W/m 0,0 km/h (0 Bft) 95,65 %
22.12.2022 07:12 8,5 C 7,8 C 6,1 C 99 % 1001,8 hPa 0,2 l/m 0 min 2 min 0 W/m 0,0 km/h (0 Bft) 95,74 %
22.12.2022 07:14 8,5 C 7,8 C 6,1 C 99 % 1001,8 hPa 0,0 l/m 0 min 2 min 0 W/m 0,0 km/h (0 Bft) 95,74 %
22.12.2022 07:16 8,5 C 7,8 C 6,1 C 99 % 1001,8 hPa 0,0 l/m 0 min 2 min 0 W/m 0,0 km/h (0 Bft) 97,14 %
22.12.2022 07:18 8,5 C 7,8 C 6,1 C 99 % 1001,8 hPa 0,0 l/m 0 min 2 min 0 W/m 0,0 km/h (0 Bft) 93,22 %
22.12.2022 07:20 8,5 C 7,8 C 6,1 C 99 % 1001,8 hPa 0,0 l/m 0 min 2 min 0 W/m 0,0 km/h (0 Bft) 94,29 %
22.12.2022 07:22 8,5 C 7,8 C 6,1 C 99 % 1001,8 hPa 0,2 l/m 0 min 2 min 0 W/m 0,0 km/h (0 Bft) 93,10 %
22.12.2022 07:24 8,5 C 7,8 C 6,1 C 99 % 1001,8 hPa 0,0 l/m 0 min 2 min 0 W/m 0,0 km/h (0 Bft) 97,22 %
22.12.2022 07:26 8,5 C 7,8 C 6,1 C 99 % 1001,8 hPa 0,0 l/m 0 min 2 min 0 W/m 0,0 km/h (0 Bft) 93,48 %
22.12.2022 07:28 8,4 C 7,8 C 6,1 C 99 % 1001,9 hPa 0,0 l/m 0 min 2 min 0 W/m 0,0 km/h (0 Bft) 98,31 %
22.12.2022 07:30 8,4 C 7,8 C 6,1 C 99 % 1001,9 hPa 0,0 l/m 0 min 2 min 0 W/m 0,0 km/h (0 Bft) 97,87 %
22.12.2022 07:32 8,4 C 7,8 C 6,1 C 99 % 1001,9 hPa 0,0 l/m 0 min 2 min 0 W/m 0,0 km/h (0 Bft) 95,74 %
22.12.2022 07:34 8,4 C 7,8 C 6,1 C 99 % 1001,9 hPa 0,2 l/m 0 min 2 min 0 W/m 0,0 km/h (0 Bft) 97,87 %
22.12.2022 07:36 8,4 C 7,8 C 6,1 C 99 % 1001,9 hPa 0,0 l/m 0 min 2 min 0 W/m 0,0 km/h (0 Bft) 95,65 %
22.12.2022 07:38 8,4 C 7,8 C 6,1 C 99 % 1002,0 hPa 0,0 l/m 0 min 2 min 0 W/m 0,0 km/h (0 Bft) 95,74 %
22.12.2022 07:40 8,4 C 7,8 C 6,1 C 99 % 1002,0 hPa 0,0 l/m 0 min 2 min 0 W/m 0,0 km/h (0 Bft) 97,14 %
22.12.2022 07:42 8,4 C 7,8 C 6,1 C 99 % 1002,0 hPa 0,0 l/m 0 min 2 min 0 W/m 0,0 km/h (0 Bft) 96,15 %
22.12.2022 07:44 8,4 C 7,8 C 6,1 C 99 % 1002,1 hPa 0,2 l/m 0 min 2 min 0 W/m 0,0 km/h (0 Bft) 97,87 %
22.12.2022 07:46 8,4 C 7,8 C 6,1 C 99 % 1002,0 hPa 0,0 l/m 0 min 2 min 0 W/m 0,0 km/h (0 Bft) 95,74 %
22.12.2022 07:48 8,4 C 7,8 C 6,1 C 99 % 1002,1 hPa 0,0 l/m 0 min 2 min 0 W/m 0,0 km/h (0 Bft) 97,87 %
22.12.2022 07:50 8,4 C 7,8 C 6,1 C 99 % 1002,1 hPa 0,0 l/m 0 min 0 min 0 W/m 0,0 km/h (0 Bft) 97,83 %
22.12.2022 07:52 8,4 C 7,8 C 6,1 C 99 % 1002,2 hPa 0,0 l/m 0 min 0 min 0 W/m 0,0 km/h (0 Bft) 93,62 %
22.12.2022 07:54 8,4 C 7,8 C 6,1 C 99 % 1002,2 hPa 0,0 l/m 0 min 0 min 0 W/m 0,0 km/h (0 Bft) 91,49 %
22.12.2022 07:56 8,4 C 7,8 C 6,1 C 99 % 1002,3 hPa 0,0 l/m 0 min 0 min 0 W/m 0,0 km/h (0 Bft) 95,74 %
22.12.2022 07:58 8,4 C 7,8 C 6,1 C 99 % 1002,3 hPa 0,0 l/m 0 min 0 min 0 W/m 0,0 km/h (0 Bft) 93,62 %
22.12.2022 08:00 8,4 C 7,8 C 6,1 C 99 % 1002,4 hPa 0,0 l/m 0 min 0 min 0 W/m 0,0 km/h (0 Bft) 100,00 %
22.12.2022 08:02 8,4 C 7,8 C 6,1 C 99 % 1002,4 hPa 0,0 l/m 0 min 0 min 0 W/m 0,0 km/h (0 Bft) 95,74 %
22.12.2022 08:04 8,4 C 7,8 C 6,1 C 99 % 1002,4 hPa 0,0 l/m 0 min 0 min 0 W/m 0,0 km/h (0 Bft) 97,83 %
22.12.2022 08:06 8,4 C 7,8 C 6,1 C 99 % 1002,5 hPa 0,0 l/m 0 min 0 min 0 W/m 0,0 km/h (0 Bft) 97,92 %
22.12.2022 08:08 8,4 C 7,8 C 6,1 C 99 % 1002,5 hPa 0,0 l/m 0 min 2 min 0 W/m 0,0 km/h (0 Bft) 97,87 %
22.12.2022 08:10 8,4 C 7,8 C 6,1 C 99 % 1002,5 hPa 0,0 l/m 0 min 2 min 0 W/m 0,0 km/h (0 Bft) 97,87 %
22.12.2022 08:12 8,4 C 7,8 C 6,1 C 99 % 1002,6 hPa 0,2 l/m 0 min 2 min 0 W/m 0,0 km/h (0 Bft) 100,00 %
22.12.2022 08:14 8,4 C 7,8 C 6,1 C 99 % 1002,6 hPa 0,0 l/m 0 min 0 min 0 W/m 0,0 km/h (0 Bft) 97,87 %
22.12.2022 08:16 8,4 C 7,8 C 6,1 C 100 % 1002,6 hPa 0,0 l/m 0 min 0 min 0 W/m 0,0 km/h (0 Bft) 95,74 %
22.12.2022 08:18 8,4 C 7,8 C 6,1 C 100 % 1002,7 hPa 0,0 l/m 0 min 0 min 0 W/m 0,0 km/h (0 Bft) 100,00 %
22.12.2022 08:20 8,4 C 7,8 C 6,1 C 100 % 1002,8 hPa 0,0 l/m 0 min 0 min 0 W/m 0,0 km/h (0 Bft) 97,87 %
22.12.2022 08:22 8,3 C 7,8 C 6,1 C 100 % 1002,8 hPa 0,0 l/m 0 min 0 min 0 W/m 0,0 km/h (0 Bft) 97,87 %
22.12.2022 08:24 8,4 C 7,8 C 6,1 C 100 % 1002,9 hPa 0,0 l/m 0 min 0 min 0 W/m 0,0 km/h (0 Bft) 100,00 %
22.12.2022 08:26 8,4 C 7,8 C 6,1 C 100 % 1003,0 hPa 0,0 l/m 0 min 0 min 0 W/m 0,0 km/h (0 Bft) 97,83 %
22.12.2022 08:28 8,4 C 7,8 C 6,1 C 100 % 1003,1 hPa 0,0 l/m 0 min 0 min 0 W/m 0,0 km/h (0 Bft) 95,74 %
22.12.2022 08:30 8,4 C 7,8 C 6,1 C 100 % 1003,1 hPa 0,0 l/m 0 min 0 min 0 W/m 0,0 km/h (0 Bft) 100,00 %
22.12.2022 08:32 8,4 C 7,8 C 6,1 C 100 % 1003,2 hPa 0,0 l/m 0 min 0 min 0 W/m 0,0 km/h (0 Bft) 100,00 %
22.12.2022 08:34 8,3 C 7,8 C 6,1 C 100 % 1003,3 hPa 0,0 l/m 0 min 0 min 0 W/m 0,0 km/h (0 Bft) 100,00 %
22.12.2022 08:36 8,3 C 7,8 C 6,1 C 100 % 1003,3 hPa 0,0 l/m 0 min 0 min 0 W/m 0,0 km/h (0 Bft) 100,00 %
22.12.2022 08:38 8,3 C 7,8 C 6,1 C 100 % 1003,4 hPa 0,0 l/m 0 min 0 min 0 W/m 0,0 km/h (0 Bft) 100,00 %
22.12.2022 08:40 8,3 C 7,8 C 6,1 C 100 % 1003,4 hPa 0,0 l/m 0 min 0 min 0 W/m 0,0 km/h (0 Bft) 100,00 %
22.12.2022 08:42 8,3 C 7,8 C 6,1 C 100 % 1003,4 hPa 0,0 l/m 0 min 0 min 0 W/m 0,0 km/h (0 Bft) 97,87 %
22.12.2022 08:44 8,3 C 7,8 C 6,1 C 100 % 1003,5 hPa 0,0 l/m 0 min 0 min 0 W/m 0,0 km/h (0 Bft) 97,87 %
22.12.2022 08:46 8,3 C 7,8 C 6,1 C 100 % 1003,5 hPa 0,0 l/m 0 min 0 min 0 W/m 0,0 km/h (0 Bft) 97,87 %
22.12.2022 08:48 8,3 C 7,8 C 6,1 C 100 % 1003,6 hPa 0,0 l/m 0 min 0 min 0 W/m 0,0 km/h (0 Bft) 95,74 %
22.12.2022 08:50 8,3 C 7,8 C 6,1 C 100 % 1003,6 hPa 0,0 l/m 0 min 0 min 0 W/m 0,0 km/h (0 Bft) 95,65 %
22.12.2022 08:52 8,3 C 7,8 C 6,1 C 100 % 1003,6 hPa 0,0 l/m 0 min 0 min 0 W/m 0,0 km/h (0 Bft) 97,87 %
22.12.2022 08:54 8,3 C 7,8 C 6,1 C 100 % 1003,6 hPa 0,0 l/m 0 min 0 min 0 W/m 0,0 km/h (0 Bft) 97,87 %
22.12.2022 08:56 8,3 C 7,8 C 6,1 C 100 % 1003,7 hPa 0,0 l/m 0 min 0 min 0 W/m 0,0 km/h (0 Bft) 95,74 %
22.12.2022 08:58 8,3 C 7,8 C 6,1 C 100 % 1003,6 hPa 0,0 l/m 0 min 0 min 0 W/m 0,0 km/h (0 Bft) 95,74 %
22.12.2022 09:00 8,4 C 7,8 C 6,1 C 100 % 1003,7 hPa 0,0 l/m 0 min 0 min 0 W/m 0,0 km/h (0 Bft) 93,62 %
22.12.2022 09:02 8,4 C 7,8 C 6,7 C 100 % 1003,7 hPa 0,0 l/m 0 min 0 min 3 W/m 0,0 km/h (0 Bft) 93,48 %
22.12.2022 09:04 8,4 C 7,8 C 6,7 C 100 % 1003,7 hPa 0,0 l/m 0 min 0 min 5 W/m 0,0 km/h (0 Bft) 95,74 %
22.12.2022 09:06 8,4 C 7,8 C 6,7 C 100 % 1003,7 hPa 0,0 l/m 0 min 0 min 5 W/m 0,0 km/h (0 Bft) 97,87 %
22.12.2022 09:08 8,4 C 7,8 C 6,7 C 100 % 1003,7 hPa 0,0 l/m 0 min 0 min 5 W/m 0,0 km/h (0 Bft) 95,74 %
22.12.2022 09:10 8,5 C 7,8 C 6,7 C 100 % 1003,8 hPa 0,0 l/m 0 min 0 min 5 W/m 0,0 km/h (0 Bft) 95,74 %
22.12.2022 09:12 8,5 C 7,8 C 6,7 C 100 % 1003,8 hPa 0,0 l/m 0 min 0 min 5 W/m 0,0 km/h (0 Bft) 95,74 %
22.12.2022 09:14 8,6 C 7,8 C 6,7 C 100 % 1003,9 hPa 0,0 l/m 0 min 0 min 9 W/m 0,0 km/h (0 Bft) 95,74 %
22.12.2022 09:16 8,6 C 7,8 C 6,7 C 100 % 1004,0 hPa 0,0 l/m 0 min 0 min 12 W/m 6,4 km/h (2 Bft) 95,65 %
22.12.2022 09:18 8,6 C 7,8 C 6,7 C 100 % 1004,0 hPa 0,0 l/m 0 min 0 min 11 W/m 6,4 km/h (2 Bft) 95,74 %
22.12.2022 09:20 8,6 C 7,8 C 6,7 C 100 % 1004,1 hPa 0,0 l/m 0 min 0 min 10 W/m 6,4 km/h (2 Bft) 95,74 %
22.12.2022 09:22 8,6 C 7,8 C 6,7 C 100 % 1004,1 hPa 0,0 l/m 0 min 0 min 11 W/m 9,7 km/h (2 Bft) 97,87 %
22.12.2022 09:24 8,7 C 7,8 C 6,7 C 100 % 1004,1 hPa 0,0 l/m 0 min 0 min 10 W/m 3,2 km/h (1 Bft) 97,87 %
22.12.2022 09:26 8,7 C 8,3 C 6,7 C 100 % 1004,2 hPa 0,0 l/m 0 min 0 min 11 W/m 3,2 km/h (1 Bft) 97,87 %
22.12.2022 09:28 8,7 C 8,3 C 6,7 C 100 % 1004,3 hPa 0,0 l/m 0 min 0 min 10 W/m 3,2 km/h (1 Bft) 97,83 %
22.12.2022 09:30 8,8 C 8,3 C 6,7 C 100 % 1004,4 hPa 0,0 l/m 0 min 0 min 10 W/m 9,7 km/h (2 Bft) 95,74 %
22.12.2022 09:32 8,8 C 8,3 C 6,7 C 100 % 1004,5 hPa 0,0 l/m 0 min 0 min 13 W/m 6,4 km/h (2 Bft) 97,87 %
22.12.2022 09:34 8,8 C 8,3 C 6,7 C 100 % 1004,4 hPa 0,0 l/m 0 min 0 min 14 W/m 6,4 km/h (2 Bft) 97,87 %
22.12.2022 09:36 8,8 C 8,3 C 6,7 C 100 % 1004,5 hPa 0,0 l/m 0 min 0 min 16 W/m 6,4 km/h (2 Bft) 97,87 %
22.12.2022 09:38 8,8 C 8,3 C 6,7 C 100 % 1004,4 hPa 0,0 l/m 0 min 0 min 19 W/m 9,7 km/h (2 Bft) 97,87 %
22.12.2022 09:40 8,8 C 8,3 C 6,7 C 100 % 1004,5 hPa 0,0 l/m 0 min 0 min 21 W/m 12,9 km/h (3 Bft) 93,48 %
22.12.2022 09:42 8,8 C 8,3 C 6,7 C 100 % 1004,6 hPa 0,0 l/m 0 min 0 min 25 W/m 6,4 km/h (2 Bft) 97,87 %
22.12.2022 09:44 8,9 C 8,3 C 6,7 C 100 % 1004,6 hPa 0,0 l/m 0 min 0 min 22 W/m 9,7 km/h (2 Bft) 95,74 %
22.12.2022 09:46 8,9 C 8,3 C 6,7 C 100 % 1004,6 hPa 0,0 l/m 0 min 0 min 24 W/m 9,7 km/h (2 Bft) 100,00 %
22.12.2022 09:48 8,9 C 8,3 C 6,7 C 100 % 1004,6 hPa 0,0 l/m 0 min 0 min 21 W/m 6,4 km/h (2 Bft) 100,00 %
22.12.2022 09:50 8,9 C 8,3 C 7,2 C 100 % 1004,7 hPa 0,0 l/m 0 min 0 min 21 W/m 6,4 km/h (2 Bft) 100,00 %
22.12.2022 09:52 8,9 C 8,3 C 7,2 C 100 % 1004,8 hPa 0,0 l/m 0 min 0 min 25 W/m 3,2 km/h (1 Bft) 97,87 %
22.12.2022 09:54 9,0 C 8,3 C 7,2 C 100 % 1004,8 hPa 0,0 l/m 0 min 0 min 21 W/m 6,4 km/h (2 Bft) 100,00 %
22.12.2022 09:56 9,0 C 8,3 C 7,2 C 100 % 1004,8 hPa 0,0 l/m 0 min 0 min 16 W/m 16,1 km/h (3 Bft) 100,00 %
22.12.2022 09:58 9,0 C 8,3 C 7,2 C 100 % 1004,9 hPa 0,0 l/m 0 min 0 min 13 W/m 6,4 km/h (2 Bft) 100,00 %
22.12.2022 10:00 9,0 C 8,3 C 7,2 C 100 % 1004,9 hPa 0,0 l/m 0 min 0 min 15 W/m 12,9 km/h (3 Bft) 97,87 %
22.12.2022 10:02 9,0 C 8,3 C 7,2 C 100 % 1005,0 hPa 0,0 l/m 0 min 0 min 16 W/m 12,9 km/h (3 Bft) 97,87 %
22.12.2022 10:04 9,1 C 8,3 C 7,2 C 100 % 1005,0 hPa 0,0 l/m 0 min 0 min 17 W/m 6,4 km/h (2 Bft) 97,87 %
22.12.2022 10:06 9,1 C 8,3 C 7,2 C 100 % 1005,0 hPa 0,0 l/m 0 min 0 min 29 W/m 16,1 km/h (3 Bft) 97,83 %
22.12.2022 10:08 9,1 C 8,3 C 7,2 C 100 % 1005,0 hPa 0,0 l/m 0 min 0 min 30 W/m 9,7 km/h (2 Bft) 97,87 %
22.12.2022 10:10 9,1 C 8,3 C 7,2 C 100 % 1005,1 hPa 0,0 l/m 0 min 0 min 40 W/m 6,4 km/h (2 Bft) 97,87 %
22.12.2022 10:12 9,1 C 8,3 C 7,2 C 100 % 1005,1 hPa 0,0 l/m 0 min 0 min 43 W/m 6,4 km/h (2 Bft) 97,87 %
22.12.2022 10:14 9,1 C 8,3 C 7,2 C 100 % 1005,1 hPa 0,0 l/m 0 min 0 min 41 W/m 9,7 km/h (2 Bft) 93,62 %
22.12.2022 10:16 9,1 C 8,3 C 7,2 C 100 % 1005,1 hPa 0,0 l/m 0 min 0 min 30 W/m 3,2 km/h (1 Bft) 97,87 %
22.12.2022 10:18 9,1 C 8,3 C 7,2 C 100 % 1005,1 hPa 0,0 l/m 0 min 0 min 26 W/m 3,2 km/h (1 Bft) 97,87 %
22.12.2022 10:20 9,1 C 8,3 C 7,2 C 100 % 1005,2 hPa 0,0 l/m 0 min 0 min 23 W/m 3,2 km/h (1 Bft) 97,83 %
22.12.2022 10:22 9,1 C 8,9 C 7,2 C 100 % 1005,2 hPa 0,0 l/m 0 min 0 min 49 W/m 6,4 km/h (2 Bft) 97,87 %
22.12.2022 10:24 9,1 C 8,9 C 7,2 C 100 % 1005,2 hPa 0,0 l/m 0 min 0 min 47 W/m 9,7 km/h (2 Bft) 97,87 %
22.12.2022 10:26 9,1 C 8,9 C 7,2 C 100 % 1005,3 hPa 0,0 l/m 0 min 0 min 39 W/m 9,7 km/h (2 Bft) 95,74 %
22.12.2022 10:28 9,1 C 8,9 C 7,2 C 100 % 1005,3 hPa 0,0 l/m 0 min 0 min 46 W/m 9,7 km/h (2 Bft) 97,87 %
22.12.2022 10:30 9,2 C 8,9 C 7,2 C 100 % 1005,4 hPa 0,0 l/m 0 min 0 min 45 W/m 6,4 km/h (2 Bft) 95,74 %
22.12.2022 10:32 9,2 C 8,9 C 7,2 C 100 % 1005,5 hPa 0,0 l/m 0 min 0 min 39 W/m 6,4 km/h (2 Bft) 95,74 %
22.12.2022 10:34 9,2 C 8,9 C 7,2 C 100 % 1005,6 hPa 0,0 l/m 0 min 0 min 36 W/m 6,4 km/h (2 Bft) 97,83 %
22.12.2022 10:36 9,1 C 8,9 C 7,2 C 100 % 1005,7 hPa 0,0 l/m 0 min 0 min 47 W/m 16,1 km/h (3 Bft) 97,87 %
22.12.2022 10:38 9,1 C 8,9 C 7,2 C 100 % 1005,8 hPa 0,0 l/m 0 min 0 min 52 W/m 9,7 km/h (2 Bft) 97,87 %
22.12.2022 10:40 9,1 C 8,9 C 7,2 C 100 % 1005,9 hPa 0,0 l/m 0 min 0 min 37 W/m 12,9 km/h (3 Bft) 95,74 %
22.12.2022 10:42 9,1 C 8,9 C 7,2 C 100 % 1005,9 hPa 0,0 l/m 0 min 0 min 54 W/m 9,7 km/h (2 Bft) 95,74 %
22.12.2022 10:44 9,0 C 8,9 C 7,2 C 100 % 1005,9 hPa 0,0 l/m 0 min 0 min 61 W/m 12,9 km/h (3 Bft) 97,87 %
22.12.2022 10:46 9,1 C 8,9 C 7,2 C 100 % 1005,9 hPa 0,0 l/m 0 min 0 min 51 W/m 3,2 km/h (1 Bft) 97,83 %
22.12.2022 10:48 9,1 C 8,9 C 7,2 C 100 % 1005,9 hPa 0,0 l/m 0 min 0 min 50 W/m 6,4 km/h (2 Bft) 93,62 %
22.12.2022 10:50 9,1 C 8,9 C 7,2 C 100 % 1005,9 hPa 0,0 l/m 0 min 0 min 50 W/m 12,9 km/h (3 Bft) 95,74 %
22.12.2022 10:52 9,1 C 8,9 C 7,2 C 100 % 1005,9 hPa 0,0 l/m 0 min 0 min 50 W/m 9,7 km/h (2 Bft) 97,87 %
22.12.2022 10:54 9,1 C 8,9 C 7,2 C 100 % 1006,0 hPa 0,0 l/m 0 min 0 min 40 W/m 12,9 km/h (3 Bft) 95,74 %
22.12.2022 10:56 9,1 C 8,9 C 7,2 C 100 % 1006,0 hPa 0,0 l/m 0 min 0 min 30 W/m 6,4 km/h (2 Bft) 95,74 %
22.12.2022 10:58 9,1 C 8,9 C 7,2 C 100 % 1006,0 hPa 0,0 l/m 0 min 0 min 26 W/m 6,4 km/h (2 Bft) 93,48 %
22.12.2022 11:00 9,1 C 8,9 C 7,2 C 100 % 1006,0 hPa 0,0 l/m 0 min 0 min 31 W/m 6,4 km/h (2 Bft) 97,87 %
22.12.2022 11:02 9,1 C 8,9 C 7,2 C 100 % 1006,0 hPa 0,0 l/m 0 min 0 min 30 W/m 12,9 km/h (3 Bft) 93,62 %
22.12.2022 11:04 9,1 C 8,9 C 7,2 C 100 % 1006,1 hPa 0,0 l/m 0 min 0 min 34 W/m 6,4 km/h (2 Bft) 97,87 %
22.12.2022 11:06 9,1 C 8,9 C 7,2 C 100 % 1006,2 hPa 0,0 l/m 0 min 0 min 39 W/m 22,5 km/h (4 Bft) 93,62 %
22.12.2022 11:08 9,0 C 8,9 C 7,2 C 100 % 1006,2 hPa 0,0 l/m 0 min 0 min 42 W/m 16,1 km/h (3 Bft) 97,87 %
22.12.2022 11:10 9,0 C 8,9 C 7,2 C 100 % 1006,3 hPa 0,0 l/m 0 min 0 min 33 W/m 9,7 km/h (2 Bft) 97,87 %
22.12.2022 11:12 9,0 C 8,9 C 7,2 C 100 % 1006,3 hPa 0,0 l/m 0 min 0 min 22 W/m 12,9 km/h (3 Bft) 93,48 %
22.12.2022 11:14 9,0 C 8,9 C 7,2 C 100 % 1006,3 hPa 0,0 l/m 0 min 0 min 21 W/m 9,7 km/h (2 Bft) 97,87 %
22.12.2022 11:16 9,0 C 8,9 C 7,2 C 100 % 1006,4 hPa 0,0 l/m 0 min 0 min 18 W/m 12,9 km/h (3 Bft) 97,87 %
22.12.2022 11:18 9,0 C 8,3 C 7,2 C 100 % 1006,4 hPa 0,0 l/m 0 min 0 min 19 W/m 12,9 km/h (3 Bft) 97,87 %
22.12.2022 11:20 8,9 C 8,9 C 7,2 C 100 % 1006,4 hPa 0,0 l/m 0 min 0 min 22 W/m 6,4 km/h (2 Bft) 100,00 %
22.12.2022 11:22 8,9 C 8,9 C 7,2 C 100 % 1006,3 hPa 0,0 l/m 0 min 0 min 20 W/m 12,9 km/h (3 Bft) 100,00 %
22.12.2022 11:24 8,9 C 8,9 C 7,2 C 100 % 1006,4 hPa 0,0 l/m 0 min 0 min 27 W/m 9,7 km/h (2 Bft) 97,87 %
22.12.2022 11:26 9,0 C 8,9 C 7,2 C 100 % 1006,4 hPa 0,0 l/m 0 min 0 min 56 W/m 12,9 km/h (3 Bft) 97,83 %
22.12.2022 11:28 9,0 C 8,9 C 7,2 C 100 % 1006,4 hPa 0,0 l/m 0 min 0 min 105 W/m 3,2 km/h (1 Bft) 100,00 %
22.12.2022 11:30 9,1 C 9,4 C 7,2 C 100 % 1006,4 hPa 0,0 l/m 0 min 0 min 103 W/m 16,1 km/h (3 Bft) 95,74 %
22.12.2022 11:32 9,1 C 9,4 C 7,2 C 100 % 1006,3 hPa 0,0 l/m 0 min 0 min 76 W/m 6,4 km/h (2 Bft) 97,87 %
22.12.2022 11:34 9,1 C 9,4 C 7,2 C 100 % 1006,4 hPa 0,0 l/m 0 min 0 min 86 W/m 9,7 km/h (2 Bft) 95,74 %
22.12.2022 11:36 9,1 C 9,4 C 7,2 C 100 % 1006,4 hPa 0,0 l/m 0 min 0 min 131 W/m 6,4 km/h (2 Bft) 100,00 %
22.12.2022 11:38 9,1 C 9,4 C 7,2 C 100 % 1006,4 hPa 0,0 l/m 2 min 0 min 146 W/m 6,4 km/h (2 Bft) 97,83 %
22.12.2022 11:40 9,1 C 9,4 C 7,2 C 100 % 1006,4 hPa 0,0 l/m 0 min 0 min 92 W/m 6,4 km/h (2 Bft) 95,74 %
22.12.2022 11:42 9,1 C 9,4 C 7,2 C 100 % 1006,4 hPa 0,0 l/m 0 min 0 min 100 W/m 12,9 km/h (3 Bft) 97,87 %
22.12.2022 11:44 9,2 C 9,4 C 7,2 C 100 % 1006,5 hPa 0,0 l/m 0 min 0 min 115 W/m 9,7 km/h (2 Bft) 97,87 %
22.12.2022 11:46 9,2 C 9,4 C 7,2 C 100 % 1006,6 hPa 0,0 l/m 0 min 0 min 112 W/m 6,4 km/h (2 Bft) 100,00 %
22.12.2022 11:48 9,2 C 9,4 C 7,2 C 100 % 1006,6 hPa 0,0 l/m 0 min 0 min 110 W/m 6,4 km/h (2 Bft) 96,61 %
22.12.2022 11:50 9,2 C 9,4 C 7,2 C 100 % 1006,6 hPa 0,0 l/m 0 min 0 min 106 W/m 12,9 km/h (3 Bft) 97,87 %
22.12.2022 11:52 9,2 C 9,4 C 7,2 C 100 % 1006,6 hPa 0,0 l/m 0 min 0 min 110 W/m 6,4 km/h (2 Bft) 97,87 %
22.12.2022 11:54 9,2 C 9,4 C 7,2 C 100 % 1006,6 hPa 0,0 l/m 0 min 0 min 124 W/m 6,4 km/h (2 Bft) 97,87 %
22.12.2022 11:56 9,2 C 9,4 C 7,2 C 100 % 1006,6 hPa 0,0 l/m 2 min 0 min 172 W/m 6,4 km/h (2 Bft) 97,83 %
22.12.2022 11:58 9,2 C 10,0 C 7,2 C 100 % 1006,6 hPa 0,0 l/m 0 min 0 min 106 W/m 6,4 km/h (2 Bft) 97,87 %
22.12.2022 12:00 9,2 C 10,0 C 7,2 C 100 % 1006,7 hPa 0,0 l/m 0 min 0 min 103 W/m 6,4 km/h (2 Bft) 97,87 %
22.12.2022 12:02 9,3 C 10,0 C 7,2 C 100 % 1006,7 hPa 0,0 l/m 0 min 0 min 136 W/m 6,4 km/h (2 Bft) 97,87 %
22.12.2022 12:04 9,3 C 10,0 C 7,2 C 99 % 1006,7 hPa 0,0 l/m 0 min 0 min 105 W/m 6,4 km/h (2 Bft) 97,87 %
22.12.2022 12:08 9,3 C 10,0 C 7,2 C 100 % 1006,7 hPa 0,0 l/m 0 min 0 min 113 W/m 6,4 km/h (2 Bft) 97,85 %
22.12.2022 12:10 9,3 C 9,4 C 7,2 C 100 % 1006,7 hPa 0,0 l/m 0 min 0 min 53 W/m 16,1 km/h (3 Bft) 97,87 %
22.12.2022 12:12 9,3 C 9,4 C 7,2 C 100 % 1006,8 hPa 0,0 l/m 0 min 0 min 135 W/m 12,9 km/h (3 Bft) 97,87 %
22.12.2022 12:14 9,3 C 10,0 C 7,2 C 100 % 1006,8 hPa 0,0 l/m 0 min 0 min 113 W/m 12,9 km/h (3 Bft) 95,74 %
22.12.2022 12:16 9,3 C 10,0 C 7,2 C 99 % 1006,8 hPa 0,0 l/m 0 min 0 min 86 W/m 6,4 km/h (2 Bft) 97,87 %
22.12.2022 12:18 9,3 C 10,0 C 7,2 C 99 % 1006,9 hPa 0,0 l/m 0 min 0 min 117 W/m 6,4 km/h (2 Bft) 97,87 %
22.12.2022 12:20 9,4 C 10,0 C 7,2 C 99 % 1006,9 hPa 0,0 l/m 0 min 0 min 128 W/m 3,2 km/h (1 Bft) 97,83 %
22.12.2022 12:22 9,4 C 10,0 C 7,2 C 99 % 1006,9 hPa 0,0 l/m 0 min 0 min 128 W/m 9,7 km/h (2 Bft) 100,00 %
22.12.2022 12:24 9,5 C 10,0 C 7,2 C 99 % 1007,0 hPa 0,0 l/m 0 min 0 min 83 W/m 12,9 km/h (3 Bft) 97,87 %
22.12.2022 12:26 9,5 C 10,0 C 7,2 C 99 % 1007,0 hPa 0,0 l/m 0 min 0 min 58 W/m 6,4 km/h (2 Bft) 100,00 %
22.12.2022 12:28 9,4 C 9,4 C 7,2 C 99 % 1007,0 hPa 0,0 l/m 0 min 0 min 65 W/m 12,9 km/h (3 Bft) 100,00 %
22.12.2022 12:30 9,4 C 9,4 C 6,7 C 99 % 1007,1 hPa 0,0 l/m 0 min 0 min 88 W/m 12,9 km/h (3 Bft) 100,00 %
22.12.2022 12:32 9,4 C 10,0 C 6,7 C 99 % 1007,1 hPa 0,0 l/m 0 min 0 min 101 W/m 12,9 km/h (3 Bft) 100,00 %
22.12.2022 12:34 9,4 C 10,0 C 6,7 C 99 % 1007,1 hPa 0,0 l/m 0 min 0 min 140 W/m 9,7 km/h (2 Bft) 100,00 %
22.12.2022 12:36 9,4 C 10,6 C 7,2 C 99 % 1007,1 hPa 0,0 l/m 2 min 0 min 158 W/m 6,4 km/h (2 Bft) 97,87 %
22.12.2022 12:38 9,5 C 10,6 C 7,2 C 99 % 1007,2 hPa 0,0 l/m 2 min 0 min 195 W/m 6,4 km/h (2 Bft) 100,00 %
22.12.2022 12:40 9,6 C 10,6 C 7,2 C 98 % 1007,2 hPa 0,0 l/m 2 min 0 min 154 W/m 6,4 km/h (2 Bft) 100,00 %
22.12.2022 12:42 9,7 C 11,1 C 7,2 C 98 % 1007,2 hPa 0,0 l/m 2 min 0 min 193 W/m 6,4 km/h (2 Bft) 100,00 %
22.12.2022 12:44 9,7 C 11,1 C 7,2 C 98 % 1007,2 hPa 0,0 l/m 2 min 0 min 201 W/m 12,9 km/h (3 Bft) 100,00 %
22.12.2022 12:46 9,8 C 10,6 C 7,2 C 98 % 1007,2 hPa 0,0 l/m 0 min 0 min 142 W/m 19,3 km/h (3 Bft) 97,83 %
22.12.2022 12:48 9,7 C 10,0 C 7,2 C 98 % 1007,3 hPa 0,0 l/m 0 min 0 min 123 W/m 19,3 km/h (3 Bft) 97,87 %
22.12.2022 12:50 9,7 C 10,0 C 7,2 C 98 % 1007,2 hPa 0,0 l/m 0 min 0 min 88 W/m 12,9 km/h (3 Bft) 93,62 %
22.12.2022 12:52 9,7 C 10,6 C 6,7 C 97 % 1007,2 hPa 0,0 l/m 2 min 0 min 167 W/m 9,7 km/h (2 Bft) 93,62 %
22.12.2022 12:54 9,7 C 10,6 C 6,7 C 97 % 1007,3 hPa 0,0 l/m 2 min 0 min 208 W/m 9,7 km/h (2 Bft) 97,87 %
22.12.2022 12:56 9,7 C 10,6 C 6,7 C 97 % 1007,3 hPa 0,0 l/m 2 min 0 min 226 W/m 16,1 km/h (3 Bft) 95,74 %
22.12.2022 12:58 9,7 C 10,6 C 6,7 C 97 % 1007,3 hPa 0,0 l/m 2 min 0 min 192 W/m 9,7 km/h (2 Bft) 95,74 %
22.12.2022 13:00 9,7 C 10,6 C 6,7 C 96 % 1007,2 hPa 0,0 l/m 2 min 0 min 224 W/m 16,1 km/h (3 Bft) 95,65 %
22.12.2022 13:02 9,8 C 11,1 C 6,7 C 96 % 1007,3 hPa 0,0 l/m 2 min 0 min 274 W/m 16,1 km/h (3 Bft) 95,74 %
22.12.2022 13:04 9,8 C 11,1 C 6,7 C 96 % 1007,3 hPa 0,0 l/m 2 min 0 min 318 W/m 9,7 km/h (2 Bft) 95,74 %
22.12.2022 13:06 9,9 C 11,1 C 7,2 C 96 % 1007,3 hPa 0,0 l/m 2 min 0 min 320 W/m 9,7 km/h (2 Bft) 94,34 %
22.12.2022 13:08 10,0 C 11,1 C 7,2 C 95 % 1007,2 hPa 0,0 l/m 2 min 0 min 248 W/m 12,9 km/h (3 Bft) 93,62 %
22.12.2022 13:10 10,1 C 11,1 C 7,2 C 95 % 1007,3 hPa 0,0 l/m 2 min 0 min 288 W/m 16,1 km/h (3 Bft) 93,62 %
22.12.2022 13:12 10,1 C 10,6 C 7,2 C 95 % 1007,4 hPa 0,0 l/m 0 min 0 min 144 W/m 16,1 km/h (3 Bft) 95,74 %
22.12.2022 13:14 10,1 C 10,6 C 6,7 C 94 % 1007,4 hPa 0,0 l/m 0 min 0 min 142 W/m 12,9 km/h (3 Bft) 91,30 %
22.12.2022 13:16 10,1 C 10,6 C 6,7 C 93 % 1007,3 hPa 0,0 l/m 2 min 0 min 200 W/m 16,1 km/h (3 Bft) 93,62 %
22.12.2022 13:18 10,0 C 10,6 C 6,7 C 93 % 1007,4 hPa 0,0 l/m 0 min 0 min 115 W/m 19,3 km/h (3 Bft) 70,21 %
22.12.2022 13:20 9,9 C 10,6 C 6,7 C 92 % 1007,4 hPa 0,0 l/m 0 min 0 min 136 W/m 12,9 km/h (3 Bft) 79,55 %
22.12.2022 13:22 9,9 C 10,0 C 6,7 C 92 % 1007,4 hPa 0,0 l/m 0 min 0 min 112 W/m 16,1 km/h (3 Bft) 95,74 %
22.12.2022 13:24 9,9 C 10,6 C 6,7 C 92 % 1007,4 hPa 0,0 l/m 0 min 0 min 125 W/m 6,4 km/h (2 Bft) 95,74 %
22.12.2022 13:26 9,9 C 10,6 C 6,7 C 92 % 1007,4 hPa 0,0 l/m 2 min 0 min 178 W/m 12,9 km/h (3 Bft) 93,48 %
22.12.2022 13:28 10,1 C 11,1 C 6,7 C 92 % 1007,4 hPa 0,0 l/m 2 min 0 min 278 W/m 12,9 km/h (3 Bft) 97,87 %
22.12.2022 13:30 10,1 C 11,1 C 6,7 C 92 % 1007,4 hPa 0,0 l/m 2 min 0 min 276 W/m 6,4 km/h (2 Bft) 97,87 %
22.12.2022 13:32 10,2 C 11,1 C 6,7 C 92 % 1007,4 hPa 0,0 l/m 2 min 0 min 201 W/m 12,9 km/h (3 Bft) 97,87 %
22.12.2022 13:34 10,2 C 10,6 C 6,7 C 91 % 1007,5 hPa 0,0 l/m 0 min 0 min 114 W/m 16,1 km/h (3 Bft) 97,87 %
22.12.2022 13:36 10,2 C 10,6 C 6,7 C 91 % 1007,5 hPa 0,0 l/m 0 min 0 min 109 W/m 12,9 km/h (3 Bft) 97,87 %
22.12.2022 13:38 10,2 C 10,6 C 6,7 C 91 % 1007,5 hPa 0,0 l/m 0 min 0 min 132 W/m 12,9 km/h (3 Bft) 97,87 %
22.12.2022 13:40 10,2 C 10,6 C 6,7 C 91 % 1007,4 hPa 0,0 l/m 2 min 0 min 225 W/m 12,9 km/h (3 Bft) 97,83 %
22.12.2022 13:42 10,2 C 10,6 C 6,7 C 91 % 1007,4 hPa 0,0 l/m 2 min 0 min 204 W/m 16,1 km/h (3 Bft) 100,00 %
22.12.2022 13:44 10,2 C 10,6 C 6,7 C 90 % 1007,3 hPa 0,0 l/m 2 min 0 min 187 W/m 12,9 km/h (3 Bft) 97,87 %
22.12.2022 13:46 10,2 C 10,6 C 6,7 C 90 % 1007,4 hPa 0,0 l/m 2 min 0 min 219 W/m 3,2 km/h (1 Bft) 95,74 %
22.12.2022 13:48 10,2 C 10,6 C 6,7 C 90 % 1007,4 hPa 0,0 l/m 2 min 0 min 239 W/m 0,0 km/h (0 Bft) 95,74 %
22.12.2022 13:50 10,3 C 10,6 C 6,7 C 90 % 1007,3 hPa 0,0 l/m 2 min 0 min 226 W/m 0,0 km/h (0 Bft) 100,00 %
22.12.2022 13:52 10,3 C 10,6 C 6,7 C 90 % 1007,3 hPa 0,0 l/m 2 min 0 min 242 W/m 0,0 km/h (0 Bft) 100,00 %
22.12.2022 13:54 10,3 C 10,6 C 6,7 C 90 % 1007,4 hPa 0,0 l/m 2 min 0 min 237 W/m 19,3 km/h (3 Bft) 100,00 %
22.12.2022 13:56 10,3 C 10,0 C 6,7 C 89 % 1007,3 hPa 0,0 l/m 2 min 0 min 248 W/m 29,0 km/h (5 Bft) 100,00 %
22.12.2022 13:58 10,3 C 10,0 C 6,7 C 89 % 1007,4 hPa 0,0 l/m 2 min 0 min 254 W/m 19,3 km/h (3 Bft) 95,74 %
22.12.2022 14:00 10,3 C 10,0 C 6,7 C 89 % 1007,3 hPa 0,0 l/m 2 min 0 min 222 W/m 6,4 km/h (2 Bft) 97,87 %
22.12.2022 14:02 10,3 C 10,0 C 6,7 C 89 % 1007,3 hPa 0,0 l/m 2 min 0 min 165 W/m 12,9 km/h (3 Bft) 97,87 %
22.12.2022 14:04 10,3 C 10,0 C 6,7 C 89 % 1007,2 hPa 0,0 l/m 2 min 0 min 209 W/m 6,4 km/h (2 Bft) 97,87 %
22.12.2022 14:06 10,3 C 10,0 C 6,7 C 89 % 1007,2 hPa 0,0 l/m 2 min 0 min 175 W/m 12,9 km/h (3 Bft) 100,00 %
22.12.2022 14:08 10,3 C 10,0 C 7,2 C 89 % 1007,2 hPa 0,0 l/m 2 min 0 min 132 W/m 16,1 km/h (3 Bft) 97,87 %
22.12.2022 14:10 10,3 C 10,0 C 7,2 C 89 % 1007,1 hPa 0,0 l/m 0 min 0 min 115 W/m 12,9 km/h (3 Bft) 100,00 %
22.12.2022 14:12 10,3 C 10,0 C 7,2 C 89 % 1007,2 hPa 0,0 l/m 2 min 0 min 132 W/m 22,5 km/h (4 Bft) 97,87 %
22.12.2022 14:14 10,3 C 10,0 C 7,2 C 89 % 1007,2 hPa 0,0 l/m 2 min 0 min 146 W/m 12,9 km/h (3 Bft) 100,00 %
22.12.2022 14:16 10,2 C 10,0 C 7,2 C 89 % 1007,3 hPa 0,0 l/m 2 min 0 min 179 W/m 16,1 km/h (3 Bft) 100,00 %
22.12.2022 14:18 10,2 C 10,0 C 7,2 C 88 % 1007,3 hPa 0,0 l/m 2 min 0 min 179 W/m 12,9 km/h (3 Bft) 100,00 %
22.12.2022 14:20 10,2 C 10,0 C 7,2 C 89 % 1007,3 hPa 0,0 l/m 2 min 0 min 171 W/m 6,4 km/h (2 Bft) 97,83 %
22.12.2022 14:22 10,2 C 10,0 C 7,2 C 89 % 1007,2 hPa 0,0 l/m 0 min 0 min 93 W/m 6,4 km/h (2 Bft) 97,87 %
22.12.2022 14:24 10,2 C 10,0 C 7,2 C 89 % 1007,1 hPa 0,0 l/m 0 min 0 min 58 W/m 16,1 km/h (3 Bft) 95,74 %
22.12.2022 14:26 10,2 C 9,4 C 7,2 C 88 % 1007,2 hPa 0,0 l/m 0 min 0 min 56 W/m 6,4 km/h (2 Bft) 97,87 %
22.12.2022 14:28 10,2 C 9,4 C 7,2 C 88 % 1007,1 hPa 0,0 l/m 0 min 0 min 56 W/m 9,7 km/h (2 Bft) 97,87 %
22.12.2022 14:30 10,1 C 9,4 C 7,2 C 88 % 1007,2 hPa 0,0 l/m 0 min 0 min 62 W/m 9,7 km/h (2 Bft) 97,87 %
22.12.2022 14:32 10,1 C 9,4 C 7,2 C 89 % 1007,2 hPa 0,0 l/m 0 min 0 min 75 W/m 12,9 km/h (3 Bft) 95,74 %
22.12.2022 14:34 10,1 C 9,4 C 7,2 C 89 % 1007,2 hPa 0,0 l/m 0 min 0 min 70 W/m 12,9 km/h (3 Bft) 97,83 %
22.12.2022 14:36 10,0 C 9,4 C 7,2 C 88 % 1007,2 hPa 0,0 l/m 0 min 0 min 61 W/m 16,1 km/h (3 Bft) 97,87 %
22.12.2022 14:38 10,0 C 9,4 C 7,2 C 89 % 1007,3 hPa 0,0 l/m 0 min 0 min 68 W/m 16,1 km/h (3 Bft) 97,87 %
22.12.2022 14:40 10,0 C 9,4 C 7,2 C 89 % 1007,3 hPa 0,0 l/m 0 min 0 min 68 W/m 12,9 km/h (3 Bft) 95,74 %
22.12.2022 14:42 9,9 C 9,4 C 7,2 C 89 % 1007,4 hPa 0,0 l/m 0 min 0 min 56 W/m 16,1 km/h (3 Bft) 97,87 %
22.12.2022 14:44 10,0 C 9,4 C 7,2 C 89 % 1007,4 hPa 0,0 l/m 0 min 0 min 64 W/m 6,4 km/h (2 Bft) 95,74 %
22.12.2022 14:46 10,0 C 9,4 C 7,2 C 89 % 1007,5 hPa 0,0 l/m 0 min 0 min 62 W/m 9,7 km/h (2 Bft) 97,83 %
22.12.2022 14:48 10,0 C 9,4 C 7,2 C 89 % 1007,5 hPa 0,0 l/m 0 min 0 min 46 W/m 12,9 km/h (3 Bft) 97,87 %
22.12.2022 14:50 10,0 C 9,4 C 7,2 C 89 % 1007,5 hPa 0,0 l/m 0 min 0 min 44 W/m 16,1 km/h (3 Bft) 97,87 %
22.12.2022 14:52 10,0 C 9,4 C 7,2 C 90 % 1007,6 hPa 0,0 l/m 0 min 0 min 41 W/m 12,9 km/h (3 Bft) 97,87 %
22.12.2022 14:54 10,0 C 9,4 C 7,2 C 90 % 1007,6 hPa 0,0 l/m 0 min 0 min 33 W/m 12,9 km/h (3 Bft) 95,74 %
22.12.2022 14:56 10,0 C 9,4 C 7,2 C 90 % 1007,5 hPa 0,0 l/m 0 min 0 min 26 W/m 9,7 km/h (2 Bft) 97,87 %
22.12.2022 14:58 10,0 C 9,4 C 7,2 C 90 % 1007,4 hPa 0,0 l/m 0 min 0 min 28 W/m 12,9 km/h (3 Bft) 97,83 %
22.12.2022 15:00 10,0 C 9,4 C 7,2 C 90 % 1007,5 hPa 0,0 l/m 0 min 0 min 22 W/m 12,9 km/h (3 Bft) 97,87 %
22.12.2022 15:02 10,0 C 9,4 C 7,2 C 90 % 1007,5 hPa 0,0 l/m 0 min 0 min 20 W/m 6,4 km/h (2 Bft) 97,87 %
22.12.2022 15:04 10,0 C 9,4 C 7,2 C 90 % 1007,5 hPa 0,0 l/m 0 min 0 min 23 W/m 6,4 km/h (2 Bft) 97,87 %
22.12.2022 15:06 10,0 C 9,4 C 7,2 C 90 % 1007,5 hPa 0,0 l/m 0 min 0 min 23 W/m 6,4 km/h (2 Bft) 97,87 %
22.12.2022 15:08 9,9 C 9,4 C 7,2 C 90 % 1007,5 hPa 0,0 l/m 0 min 0 min 47 W/m 6,4 km/h (2 Bft) 95,74 %
22.12.2022 15:10 9,9 C 9,4 C 7,2 C 90 % 1007,4 hPa 0,0 l/m 0 min 0 min 49 W/m 6,4 km/h (2 Bft) 97,83 %
22.12.2022 15:12 9,9 C 9,4 C 7,2 C 90 % 1007,4 hPa 0,0 l/m 0 min 0 min 39 W/m 25,7 km/h (4 Bft) 95,74 %
22.12.2022 15:14 9,9 C 9,4 C 7,2 C 90 % 1007,4 hPa 0,0 l/m 0 min 0 min 40 W/m 12,9 km/h (3 Bft) 100,00 %
22.12.2022 15:16 9,9 C 9,4 C 7,2 C 90 % 1007,4 hPa 0,0 l/m 0 min 0 min 43 W/m 16,1 km/h (3 Bft) 100,00 %
22.12.2022 15:18 9,9 C 9,4 C 7,2 C 90 % 1007,4 hPa 0,0 l/m 0 min 0 min 32 W/m 16,1 km/h (3 Bft) 100,00 %
22.12.2022 15:20 9,9 C 9,4 C 7,2 C 90 % 1007,5 hPa 0,0 l/m 0 min 0 min 24 W/m 6,4 km/h (2 Bft) 100,00 %
22.12.2022 15:22 9,9 C 9,4 C 7,2 C 90 % 1007,4 hPa 0,0 l/m 0 min 0 min 21 W/m 16,1 km/h (3 Bft) 100,00 %
22.12.2022 15:24 9,9 C 9,4 C 6,7 C 90 % 1007,4 hPa 0,0 l/m 0 min 0 min 19 W/m 32,2 km/h (5 Bft) 95,65 %
22.12.2022 15:26 9,8 C 9,4 C 7,2 C 90 % 1007,4 hPa 0,0 l/m 0 min 0 min 20 W/m 16,1 km/h (3 Bft) 95,74 %
22.12.2022 15:28 9,8 C 9,4 C 6,7 C 90 % 1007,4 hPa 0,0 l/m 0 min 0 min 22 W/m 16,1 km/h (3 Bft) 91,30 %
22.12.2022 15:30 9,8 C 8,9 C 6,7 C 90 % 1007,3 hPa 0,0 l/m 0 min 0 min 21 W/m 9,7 km/h (2 Bft) 95,74 %
22.12.2022 15:32 9,8 C 8,9 C 6,7 C 90 % 1007,3 hPa 0,0 l/m 0 min 0 min 18 W/m 9,7 km/h (2 Bft) 95,74 %
22.12.2022 15:34 9,8 C 8,9 C 6,7 C 90 % 1007,3 hPa 0,0 l/m 0 min 0 min 16 W/m 12,9 km/h (3 Bft) 95,74 %
22.12.2022 15:36 9,7 C 8,9 C 6,7 C 90 % 1007,3 hPa 0,0 l/m 0 min 0 min 14 W/m 6,4 km/h (2 Bft) 91,30 %
22.12.2022 15:38 9,7 C 8,9 C 6,7 C 90 % 1007,3 hPa 0,0 l/m 0 min 0 min 12 W/m 12,9 km/h (3 Bft) 95,74 %
22.12.2022 15:40 9,7 C 8,9 C 6,7 C 90 % 1007,3 hPa 0,0 l/m 0 min 0 min 12 W/m 3,2 km/h (1 Bft) 95,74 %
22.12.2022 15:42 9,7 C 8,9 C 6,7 C 90 % 1007,4 hPa 0,0 l/m 0 min 0 min 12 W/m 3,2 km/h (1 Bft) 63,83 %
22.12.2022 15:44 9,7 C 8,9 C 6,7 C 90 % 1007,3 hPa 0,0 l/m 0 min 0 min 12 W/m 6,4 km/h (2 Bft) 84,44 %
22.12.2022 15:46 9,7 C 8,9 C 6,7 C 90 % 1007,3 hPa 0,0 l/m 0 min 0 min 11 W/m 9,7 km/h (2 Bft) 95,74 %
22.12.2022 15:48 9,6 C 8,9 C 6,7 C 90 % 1007,2 hPa 0,0 l/m 0 min 0 min 9 W/m 9,7 km/h (2 Bft) 93,62 %
22.12.2022 15:50 9,6 C 8,9 C 6,7 C 90 % 1007,1 hPa 0,0 l/m 0 min 0 min 9 W/m 12,9 km/h (3 Bft) 95,65 %
22.12.2022 15:52 9,6 C 8,9 C 6,7 C 90 % 1007,0 hPa 0,0 l/m 0 min 0 min 11 W/m 6,4 km/h (2 Bft) 95,74 %
22.12.2022 15:54 9,6 C 8,9 C 6,7 C 90 % 1007,0 hPa 0,0 l/m 0 min 0 min 11 W/m 3,2 km/h (1 Bft) 95,74 %
22.12.2022 15:56 9,6 C 8,9 C 6,7 C 90 % 1007,0 hPa 0,0 l/m 0 min 0 min 11 W/m 6,4 km/h (2 Bft) 95,74 %
22.12.2022 15:58 9,6 C 8,9 C 6,7 C 90 % 1006,9 hPa 0,0 l/m 0 min 0 min 11 W/m 6,4 km/h (2 Bft) 93,62 %
22.12.2022 16:00 9,6 C 8,9 C 6,7 C 90 % 1006,9 hPa 0,0 l/m 0 min 0 min 9 W/m 9,7 km/h (2 Bft) 97,87 %
22.12.2022 16:02 9,6 C 8,9 C 6,7 C 90 % 1006,9 hPa 0,0 l/m 0 min 0 min 7 W/m 3,2 km/h (1 Bft) 91,30 %
22.12.2022 16:04 9,6 C 8,9 C 6,7 C 90 % 1006,8 hPa 0,0 l/m 0 min 0 min 7 W/m 6,4 km/h (2 Bft) 97,87 %
22.12.2022 16:06 9,6 C 8,9 C 6,7 C 90 % 1006,9 hPa 0,0 l/m 0 min 0 min 7 W/m 3,2 km/h (1 Bft) 95,74 %
22.12.2022 16:08 9,5 C 8,9 C 6,7 C 90 % 1006,9 hPa 0,0 l/m 0 min 2 min 5 W/m 3,2 km/h (1 Bft) 97,87 %
22.12.2022 16:10 9,5 C 8,9 C 6,7 C 90 % 1006,9 hPa 0,0 l/m 0 min 0 min 5 W/m 3,2 km/h (1 Bft) 97,87 %
22.12.2022 16:12 9,5 C 8,9 C 6,7 C 90 % 1006,9 hPa 0,0 l/m 0 min 2 min 3 W/m 3,2 km/h (1 Bft) 97,87 %
22.12.2022 16:14 9,5 C 8,9 C 6,7 C 90 % 1006,8 hPa 0,0 l/m 0 min 0 min 0 W/m 3,2 km/h (1 Bft) 97,83 %
22.12.2022 16:16 9,5 C 8,9 C 6,7 C 90 % 1006,8 hPa 0,0 l/m 0 min 0 min 0 W/m 3,2 km/h (1 Bft) 100,00 %
22.12.2022 16:18 9,4 C 8,9 C 6,7 C 90 % 1006,8 hPa 0,0 l/m 0 min 0 min 0 W/m 3,2 km/h (1 Bft) 100,00 %
22.12.2022 16:20 9,4 C 8,9 C 6,7 C 90 % 1006,7 hPa 0,0 l/m 0 min 0 min 0 W/m 3,2 km/h (1 Bft) 100,00 %
22.12.2022 16:22 9,4 C 8,9 C 6,7 C 90 % 1006,7 hPa 0,0 l/m 0 min 0 min 0 W/m 3,2 km/h (1 Bft) 95,74 %
22.12.2022 16:24 9,4 C 8,3 C 6,7 C 90 % 1006,7 hPa 0,0 l/m 0 min 0 min 0 W/m 3,2 km/h (1 Bft) 100,00 %
22.12.2022 16:26 9,4 C 8,3 C 6,7 C 90 % 1006,6 hPa 0,0 l/m 0 min 0 min 0 W/m 3,2 km/h (1 Bft) 100,00 %
22.12.2022 16:28 9,4 C 8,3 C 6,7 C 91 % 1006,6 hPa 0,0 l/m 0 min 0 min 0 W/m 3,2 km/h (1 Bft) 100,00 %
22.12.2022 16:30 9,4 C 8,3 C 6,7 C 91 % 1006,6 hPa 0,0 l/m 0 min 2 min 0 W/m 6,4 km/h (2 Bft) 97,87 %
22.12.2022 16:32 9,4 C 8,3 C 6,7 C 91 % 1006,6 hPa 0,0 l/m 0 min 0 min 0 W/m 3,2 km/h (1 Bft) 100,00 %
22.12.2022 16:34 9,4 C 8,3 C 6,7 C 91 % 1006,6 hPa 0,0 l/m 0 min 0 min 0 W/m 3,2 km/h (1 Bft) 100,00 %
22.12.2022 16:36 9,4 C 8,3 C 6,1 C 91 % 1006,7 hPa 0,0 l/m 0 min 0 min 0 W/m 3,2 km/h (1 Bft) 100,00 %
22.12.2022 16:38 9,3 C 8,3 C 6,1 C 91 % 1006,6 hPa 0,0 l/m 0 min 0 min 0 W/m 3,2 km/h (1 Bft) 97,83 %
22.12.2022 16:40 9,3 C 8,3 C 6,1 C 91 % 1006,6 hPa 0,0 l/m 0 min 2 min 0 W/m 3,2 km/h (1 Bft) 100,00 %
22.12.2022 16:42 9,3 C 8,3 C 6,1 C 91 % 1006,6 hPa 0,0 l/m 0 min 2 min 0 W/m 3,2 km/h (1 Bft) 100,00 %
22.12.2022 16:44 9,3 C 8,3 C 6,1 C 91 % 1006,6 hPa 0,0 l/m 0 min 2 min 0 W/m 6,4 km/h (2 Bft) 100,00 %
22.12.2022 16:46 9,3 C 8,3 C 6,1 C 91 % 1006,6 hPa 0,0 l/m 0 min 2 min 0 W/m 3,2 km/h (1 Bft) 97,87 %
22.12.2022 16:48 9,3 C 8,3 C 6,1 C 91 % 1006,5 hPa 0,0 l/m 0 min 2 min 0 W/m 9,7 km/h (2 Bft) 97,87 %
22.12.2022 16:50 9,3 C 8,3 C 6,1 C 91 % 1006,5 hPa 0,0 l/m 0 min 2 min 0 W/m 6,4 km/h (2 Bft) 97,87 %
22.12.2022 16:52 9,3 C 8,3 C 6,1 C 91 % 1006,6 hPa 0,0 l/m 0 min 0 min 0 W/m 3,2 km/h (1 Bft) 100,00 %
22.12.2022 16:54 9,3 C 8,3 C 6,1 C 92 % 1006,5 hPa 0,0 l/m 0 min 0 min 0 W/m 3,2 km/h (1 Bft) 100,00 %
22.12.2022 16:56 9,2 C 8,3 C 6,1 C 92 % 1006,4 hPa 0,0 l/m 0 min 2 min 0 W/m 6,4 km/h (2 Bft) 100,00 %
22.12.2022 16:58 9,2 C 8,3 C 5,6 C 92 % 1006,5 hPa 0,0 l/m 0 min 2 min 0 W/m 3,2 km/h (1 Bft) 97,87 %
22.12.2022 17:00 9,2 C 7,8 C 5,6 C 92 % 1006,4 hPa 0,0 l/m 0 min 2 min 0 W/m 6,4 km/h (2 Bft) 97,87 %
22.12.2022 17:02 9,2 C 7,8 C 5,6 C 92 % 1006,4 hPa 0,0 l/m 0 min 2 min 0 W/m 6,4 km/h (2 Bft) 97,87 %
22.12.2022 17:04 9,2 C 7,8 C 5,6 C 92 % 1006,4 hPa 0,0 l/m 0 min 0 min 0 W/m 12,9 km/h (3 Bft) 97,83 %
22.12.2022 17:06 9,1 C 7,8 C 5,6 C 92 % 1006,3 hPa 0,0 l/m 0 min 2 min 0 W/m 6,4 km/h (2 Bft) 96,61 %
22.12.2022 17:08 9,1 C 7,8 C 5,6 C 92 % 1006,3 hPa 0,2 l/m 0 min 2 min 0 W/m 6,4 km/h (2 Bft) 100,00 %
22.12.2022 17:10 9,1 C 7,8 C 5,6 C 92 % 1006,3 hPa 0,0 l/m 0 min 2 min 0 W/m 6,4 km/h (2 Bft) 95,74 %
22.12.2022 17:12 9,1 C 7,8 C 5,6 C 93 % 1006,3 hPa 0,0 l/m 0 min 2 min 0 W/m 6,4 km/h (2 Bft) 93,62 %
22.12.2022 17:14 9,0 C 7,8 C 5,6 C 93 % 1006,3 hPa 0,2 l/m 0 min 2 min 0 W/m 6,4 km/h (2 Bft) 95,74 %
22.12.2022 17:16 9,0 C 7,8 C 5,6 C 93 % 1006,2 hPa 0,0 l/m 0 min 2 min 0 W/m 6,4 km/h (2 Bft) 97,87 %
22.12.2022 17:18 9,0 C 7,8 C 5,6 C 93 % 1006,2 hPa 0,0 l/m 0 min 0 min 0 W/m 12,9 km/h (3 Bft) 95,65 %
22.12.2022 17:20 8,9 C 7,8 C 5,6 C 93 % 1006,1 hPa 0,0 l/m 0 min 0 min 0 W/m 6,4 km/h (2 Bft) 95,74 %
22.12.2022 17:22 8,9 C 7,8 C 5,6 C 93 % 1006,1 hPa 0,0 l/m 0 min 0 min 0 W/m 6,4 km/h (2 Bft) 93,62 %
22.12.2022 17:24 8,9 C 7,8 C 5,6 C 93 % 1006,1 hPa 0,0 l/m 0 min 0 min 0 W/m 6,4 km/h (2 Bft) 46,15 %
22.12.2022 17:26 8,9 C 7,8 C 5,6 C 93 % 1006,1 hPa 0,0 l/m 0 min 0 min 0 W/m 9,7 km/h (2 Bft) 95,74 %
22.12.2022 17:28 8,9 C 7,8 C 5,6 C 94 % 1006,0 hPa 0,0 l/m 0 min 0 min 0 W/m 3,2 km/h (1 Bft) 93,62 %
22.12.2022 17:30 8,8 C 7,8 C 5,6 C 94 % 1006,0 hPa 0,0 l/m 0 min 0 min 0 W/m 6,4 km/h (2 Bft) 95,65 %
22.12.2022 17:32 8,8 C 7,8 C 5,6 C 94 % 1005,9 hPa 0,0 l/m 0 min 0 min 0 W/m 12,9 km/h (3 Bft) 93,62 %
22.12.2022 17:34 8,8 C 7,8 C 5,6 C 94 % 1005,9 hPa 0,0 l/m 0 min 0 min 0 W/m 9,7 km/h (2 Bft) 95,74 %
22.12.2022 17:36 8,8 C 7,8 C 5,6 C 94 % 1005,8 hPa 0,0 l/m 0 min 0 min 0 W/m 6,4 km/h (2 Bft) 95,74 %
22.12.2022 17:38 8,8 C 7,8 C 5,6 C 94 % 1005,8 hPa 0,0 l/m 0 min 0 min 0 W/m 12,9 km/h (3 Bft) 95,74 %
22.12.2022 17:40 8,8 C 7,8 C 5,6 C 94 % 1005,7 hPa 0,0 l/m 0 min 0 min 0 W/m 12,9 km/h (3 Bft) 95,74 %
22.12.2022 17:42 8,8 C 7,8 C 5,6 C 94 % 1005,8 hPa 0,0 l/m 0 min 0 min 0 W/m 12,9 km/h (3 Bft) 97,83 %
22.12.2022 17:44 8,8 C 7,8 C 5,6 C 94 % 1005,7 hPa 0,0 l/m 0 min 0 min 0 W/m 6,4 km/h (2 Bft) 95,74 %
22.12.2022 17:46 8,8 C 7,8 C 5,6 C 95 % 1005,7 hPa 0,0 l/m 0 min 0 min 0 W/m 12,9 km/h (3 Bft) 95,74 %
22.12.2022 17:48 8,8 C 7,8 C 5,6 C 95 % 1005,7 hPa 0,0 l/m 0 min 0 min 0 W/m 12,9 km/h (3 Bft) 100,00 %
22.12.2022 17:50 8,8 C 7,8 C 5,6 C 95 % 1005,7 hPa 0,0 l/m 0 min 0 min 0 W/m 9,7 km/h (2 Bft) 91,49 %
22.12.2022 17:52 8,8 C 7,8 C 5,6 C 95 % 1005,7 hPa 0,0 l/m 0 min 0 min 0 W/m 9,7 km/h (2 Bft) 97,87 %
22.12.2022 17:54 8,8 C 7,8 C 5,6 C 95 % 1005,6 hPa 0,0 l/m 0 min 0 min 0 W/m 9,7 km/h (2 Bft) 100,00 %
22.12.2022 17:56 8,8 C 7,8 C 5,6 C 95 % 1005,6 hPa 0,0 l/m 0 min 0 min 0 W/m 9,7 km/h (2 Bft) 97,83 %
22.12.2022 17:58 8,8 C 7,8 C 5,6 C 95 % 1005,6 hPa 0,0 l/m 0 min 0 min 0 W/m 12,9 km/h (3 Bft) 100,00 %
22.12.2022 18:00 8,8 C 7,8 C 5,6 C 95 % 1005,6 hPa 0,0 l/m 0 min 0 min 0 W/m 6,4 km/h (2 Bft) 100,00 %
22.12.2022 18:02 8,8 C 7,8 C 5,6 C 95 % 1005,6 hPa 0,0 l/m 0 min 0 min 0 W/m 12,9 km/h (3 Bft) 100,00 %
22.12.2022 18:04 8,8 C 7,8 C 5,6 C 95 % 1005,6 hPa 0,0 l/m 0 min 0 min 0 W/m 16,1 km/h (3 Bft) 97,87 %
22.12.2022 18:08 8,8 C 7,8 C 5,6 C 96 % 1005,6 hPa 0,0 l/m 0 min 0 min 0 W/m 12,9 km/h (3 Bft) 100,00 %
22.12.2022 18:10 8,8 C 7,8 C 5,6 C 96 % 1005,6 hPa 0,0 l/m 0 min 0 min 0 W/m 9,7 km/h (2 Bft) 100,00 %
22.12.2022 18:12 8,8 C 7,8 C 6,1 C 96 % 1005,6 hPa 0,0 l/m 0 min 0 min 0 W/m 16,1 km/h (3 Bft) 100,00 %
22.12.2022 18:14 8,8 C 7,8 C 6,1 C 96 % 1005,6 hPa 0,0 l/m 0 min 0 min 0 W/m 19,3 km/h (3 Bft) 100,00 %
22.12.2022 18:16 8,8 C 7,8 C 6,1 C 96 % 1005,5 hPa 0,0 l/m 0 min 0 min 0 W/m 6,4 km/h (2 Bft) 97,87 %
22.12.2022 18:18 8,8 C 7,8 C 6,1 C 96 % 1005,5 hPa 0,0 l/m 0 min 0 min 0 W/m 6,4 km/h (2 Bft) 100,00 %
22.12.2022 18:20 8,8 C 7,8 C 6,1 C 96 % 1005,5 hPa 0,0 l/m 0 min 0 min 0 W/m 9,7 km/h (2 Bft) 100,00 %
22.12.2022 18:22 8,8 C 7,8 C 6,1 C 96 % 1005,5 hPa 0,0 l/m 0 min 0 min 0 W/m 12,9 km/h (3 Bft) 97,83 %
22.12.2022 18:24 8,8 C 7,8 C 6,1 C 96 % 1005,4 hPa 0,0 l/m 0 min 0 min 0 W/m 6,4 km/h (2 Bft) 95,74 %
22.12.2022 18:26 8,8 C 7,8 C 6,1 C 96 % 1005,4 hPa 0,0 l/m 0 min 0 min 0 W/m 6,4 km/h (2 Bft) 97,87 %
22.12.2022 18:28 8,8 C 7,8 C 6,1 C 96 % 1005,3 hPa 0,2 l/m 0 min 0 min 0 W/m 6,4 km/h (2 Bft) 95,74 %
22.12.2022 18:30 8,8 C 7,8 C 6,1 C 96 % 1005,3 hPa 0,0 l/m 0 min 0 min 0 W/m 6,4 km/h (2 Bft) 97,87 %
22.12.2022 18:32 8,9 C 7,8 C 6,1 C 96 % 1005,2 hPa 0,0 l/m 0 min 0 min 0 W/m 12,9 km/h (3 Bft) 97,87 %
22.12.2022 18:34 8,9 C 7,8 C 6,1 C 97 % 1005,3 hPa 0,0 l/m 0 min 0 min 0 W/m 6,4 km/h (2 Bft) 95,65 %
22.12.2022 18:36 8,9 C 7,8 C 6,1 C 97 % 1005,2 hPa 0,0 l/m 0 min 0 min 0 W/m 6,4 km/h (2 Bft) 97,87 %
22.12.2022 18:38 8,9 C 7,8 C 6,1 C 97 % 1005,2 hPa 0,0 l/m 0 min 0 min 0 W/m 6,4 km/h (2 Bft) 97,87 %
22.12.2022 18:40 8,9 C 7,8 C 6,1 C 97 % 1005,1 hPa 0,0 l/m 0 min 0 min 0 W/m 3,2 km/h (1 Bft) 93,62 %
22.12.2022 18:42 8,9 C 8,3 C 6,1 C 97 % 1005,1 hPa 0,0 l/m 0 min 2 min 0 W/m 3,2 km/h (1 Bft) 97,87 %
22.12.2022 18:44 8,9 C 8,3 C 6,1 C 97 % 1005,0 hPa 0,0 l/m 0 min 2 min 0 W/m 0,0 km/h (0 Bft) 97,87 %
22.12.2022 18:46 8,9 C 8,3 C 6,1 C 97 % 1005,0 hPa 0,0 l/m 0 min 0 min 0 W/m 3,2 km/h (1 Bft) 95,65 %
22.12.2022 18:48 8,9 C 8,3 C 6,1 C 97 % 1005,0 hPa 0,0 l/m 0 min 0 min 0 W/m 6,4 km/h (2 Bft) 97,87 %
22.12.2022 18:50 8,9 C 8,3 C 6,1 C 97 % 1004,9 hPa 0,0 l/m 0 min 0 min 0 W/m 6,4 km/h (2 Bft) 97,87 %
22.12.2022 18:52 8,9 C 8,3 C 6,1 C 97 % 1004,8 hPa 0,0 l/m 0 min 0 min 0 W/m 6,4 km/h (2 Bft) 93,62 %
22.12.2022 18:54 8,9 C 8,3 C 6,1 C 97 % 1004,8 hPa 0,0 l/m 0 min 0 min 0 W/m 6,4 km/h (2 Bft) 97,87 %
22.12.2022 18:56 9,0 C 8,3 C 6,1 C 97 % 1004,8 hPa 0,0 l/m 0 min 0 min 0 W/m 9,7 km/h (2 Bft) 97,87 %
22.12.2022 18:58 9,0 C 8,3 C 6,1 C 97 % 1004,8 hPa 0,0 l/m 0 min 0 min 0 W/m 3,2 km/h (1 Bft) 93,62 %
22.12.2022 19:00 9,0 C 8,3 C 6,1 C 97 % 1004,8 hPa 0,0 l/m 0 min 0 min 0 W/m 6,4 km/h (2 Bft) 97,83 %
22.12.2022 19:02 9,0 C 8,3 C 6,1 C 97 % 1004,8 hPa 0,0 l/m 0 min 0 min 0 W/m 16,1 km/h (3 Bft) 97,87 %
22.12.2022 19:04 9,1 C 8,3 C 6,1 C 97 % 1004,8 hPa 0,0 l/m 0 min 0 min 0 W/m 6,4 km/h (2 Bft) 95,74 %
22.12.2022 19:06 9,1 C 8,3 C 6,1 C 97 % 1004,7 hPa 0,0 l/m 0 min 0 min 0 W/m 12,9 km/h (3 Bft) 97,87 %
22.12.2022 19:08 9,1 C 8,3 C 6,1 C 97 % 1004,7 hPa 0,0 l/m 0 min 0 min 0 W/m 6,4 km/h (2 Bft) 93,62 %
22.12.2022 19:10 9,1 C 8,3 C 6,1 C 97 % 1004,7 hPa 0,0 l/m 0 min 0 min 0 W/m 6,4 km/h (2 Bft) 93,62 %
22.12.2022 19:12 9,0 C 8,3 C 6,1 C 97 % 1004,7 hPa 0,0 l/m 0 min 0 min 0 W/m 12,9 km/h (3 Bft) 95,74 %
22.12.2022 19:14 9,1 C 8,3 C 6,1 C 97 % 1004,7 hPa 0,0 l/m 0 min 0 min 0 W/m 12,9 km/h (3 Bft) 100,00 %
22.12.2022 19:16 9,1 C 8,3 C 6,1 C 97 % 1004,6 hPa 0,0 l/m 0 min 0 min 0 W/m 16,1 km/h (3 Bft) 89,36 %
22.12.2022 19:18 9,1 C 8,3 C 6,1 C 97 % 1004,6 hPa 0,0 l/m 0 min 2 min 0 W/m 12,9 km/h (3 Bft) 97,87 %
22.12.2022 19:20 9,1 C 8,3 C 6,1 C 98 % 1004,5 hPa 0,0 l/m 0 min 2 min 0 W/m 6,4 km/h (2 Bft) 95,74 %
22.12.2022 19:22 9,1 C 8,3 C 6,1 C 98 % 1004,5 hPa 0,2 l/m 0 min 2 min 0 W/m 6,4 km/h (2 Bft) 95,74 %
22.12.2022 19:24 9,1 C 8,3 C 6,1 C 98 % 1004,5 hPa 0,0 l/m 0 min 2 min 0 W/m 6,4 km/h (2 Bft) 97,87 %
22.12.2022 19:26 9,1 C 8,3 C 6,1 C 98 % 1004,5 hPa 0,0 l/m 0 min 2 min 0 W/m 12,9 km/h (3 Bft) 95,65 %
22.12.2022 19:28 9,1 C 8,3 C 6,1 C 98 % 1004,5 hPa 0,0 l/m 0 min 0 min 0 W/m 6,4 km/h (2 Bft) 91,49 %
22.12.2022 19:30 9,1 C 8,3 C 6,1 C 98 % 1004,5 hPa 0,0 l/m 0 min 0 min 0 W/m 6,4 km/h (2 Bft) 93,62 %
22.12.2022 19:32 9,1 C 8,3 C 6,1 C 98 % 1004,4 hPa 0,0 l/m 0 min 2 min 0 W/m 6,4 km/h (2 Bft) 95,74 %
22.12.2022 19:34 9,0 C 8,3 C 6,1 C 98 % 1004,4 hPa 0,0 l/m 0 min 2 min 0 W/m 6,4 km/h (2 Bft) 93,62 %
22.12.2022 19:36 9,0 C 8,3 C 6,1 C 98 % 1004,3 hPa 0,0 l/m 0 min 2 min 0 W/m 6,4 km/h (2 Bft) 95,74 %
22.12.2022 19:38 9,0 C 8,3 C 6,1 C 98 % 1004,3 hPa 0,0 l/m 0 min 2 min 0 W/m 6,4 km/h (2 Bft) 95,65 %
22.12.2022 19:40 9,0 C 8,3 C 6,1 C 98 % 1004,3 hPa 0,2 l/m 0 min 2 min 0 W/m 3,2 km/h (1 Bft) 93,62 %
22.12.2022 19:42 9,0 C 8,3 C 6,1 C 98 % 1004,4 hPa 0,0 l/m 0 min 2 min 0 W/m 6,4 km/h (2 Bft) 95,74 %
22.12.2022 19:44 9,0 C 8,3 C 6,1 C 98 % 1004,3 hPa 0,0 l/m 0 min 2 min 0 W/m 9,7 km/h (2 Bft) 95,74 %
22.12.2022 19:46 9,1 C 8,3 C 6,1 C 98 % 1004,3 hPa 0,0 l/m 0 min 0 min 0 W/m 9,7 km/h (2 Bft) 93,75 %
22.12.2022 19:48 9,1 C 8,3 C 6,1 C 98 % 1004,3 hPa 0,0 l/m 0 min 0 min 0 W/m 9,7 km/h (2 Bft) 95,74 %
22.12.2022 19:50 9,1 C 8,3 C 6,1 C 98 % 1004,3 hPa 0,0 l/m 0 min 0 min 0 W/m 6,4 km/h (2 Bft) 95,74 %
22.12.2022 19:52 9,1 C 8,3 C 6,1 C 98 % 1004,3 hPa 0,0 l/m 0 min 0 min 0 W/m 3,2 km/h (1 Bft) 95,65 %
22.12.2022 19:54 9,1 C 8,3 C 6,1 C 98 % 1004,3 hPa 0,0 l/m 0 min 0 min 0 W/m 9,7 km/h (2 Bft) 97,87 %
22.12.2022 19:56 9,1 C 8,3 C 6,1 C 98 % 1004,2 hPa 0,0 l/m 0 min 0 min 0 W/m 3,2 km/h (1 Bft) 97,87 %
22.12.2022 19:58 9,1 C 8,3 C 6,7 C 98 % 1004,2 hPa 0,0 l/m 0 min 0 min 0 W/m 3,2 km/h (1 Bft) 95,74 %
22.12.2022 20:00 9,1 C 8,3 C 6,7 C 98 % 1004,2 hPa 0,0 l/m 0 min 2 min 0 W/m 6,4 km/h (2 Bft) 97,87 %
22.12.2022 20:02 9,1 C 8,3 C 6,7 C 98 % 1004,2 hPa 0,0 l/m 0 min 2 min 0 W/m 12,9 km/h (3 Bft) 95,74 %
22.12.2022 20:04 9,1 C 8,3 C 6,7 C 98 % 1004,2 hPa 0,2 l/m 0 min 2 min 0 W/m 3,2 km/h (1 Bft) 93,48 %
22.12.2022 20:06 9,1 C 8,3 C 6,7 C 98 % 1004,2 hPa 0,0 l/m 0 min 2 min 0 W/m 9,7 km/h (2 Bft) 97,87 %
22.12.2022 20:08 9,2 C 8,3 C 6,7 C 98 % 1004,2 hPa 0,0 l/m 0 min 2 min 0 W/m 3,2 km/h (1 Bft) 100,00 %
22.12.2022 20:10 9,2 C 8,3 C 6,7 C 98 % 1004,1 hPa 0,0 l/m 0 min 2 min 0 W/m 6,4 km/h (2 Bft) 100,00 %
22.12.2022 20:12 9,2 C 8,3 C 6,7 C 98 % 1004,1 hPa 0,0 l/m 0 min 2 min 0 W/m 6,4 km/h (2 Bft) 100,00 %
22.12.2022 20:14 9,2 C 8,3 C 6,7 C 98 % 1004,1 hPa 0,0 l/m 0 min 2 min 0 W/m 12,9 km/h (3 Bft) 97,87 %
22.12.2022 20:16 9,2 C 8,3 C 6,7 C 98 % 1004,1 hPa 0,2 l/m 0 min 0 min 0 W/m 16,1 km/h (3 Bft) 97,87 %
22.12.2022 20:18 9,3 C 8,9 C 6,7 C 98 % 1004,1 hPa 0,0 l/m 0 min 2 min 0 W/m 12,9 km/h (3 Bft) 100,00 %
22.12.2022 20:20 9,3 C 8,9 C 6,7 C 98 % 1004,0 hPa 0,0 l/m 0 min 2 min 0 W/m 9,7 km/h (2 Bft) 100,00 %
22.12.2022 20:22 9,3 C 8,9 C 6,7 C 98 % 1004,0 hPa 0,0 l/m 0 min 2 min 0 W/m 9,7 km/h (2 Bft) 100,00 %
22.12.2022 20:24 9,3 C 8,9 C 6,7 C 98 % 1004,0 hPa 0,0 l/m 0 min 2 min 0 W/m 12,9 km/h (3 Bft) 100,00 %
22.12.2022 20:26 9,4 C 8,9 C 6,7 C 98 % 1004,0 hPa 0,2 l/m 0 min 0 min 0 W/m 9,7 km/h (2 Bft) 97,87 %
22.12.2022 20:28 9,4 C 8,9 C 6,7 C 98 % 1004,0 hPa 0,0 l/m 0 min 0 min 0 W/m 6,4 km/h (2 Bft) 100,00 %
22.12.2022 20:30 9,4 C 8,9 C 6,7 C 98 % 1004,0 hPa 0,0 l/m 0 min 2 min 0 W/m 12,9 km/h (3 Bft) 100,00 %
22.12.2022 20:32 9,5 C 8,9 C 6,7 C 98 % 1003,9 hPa 0,0 l/m 0 min 0 min 0 W/m 16,1 km/h (3 Bft) 100,00 %
22.12.2022 20:34 9,5 C 8,9 C 6,7 C 98 % 1003,9 hPa 0,0 l/m 0 min 0 min 0 W/m 22,5 km/h (4 Bft) 91,49 %
22.12.2022 20:36 9,6 C 8,9 C 6,7 C 98 % 1003,9 hPa 0,0 l/m 0 min 0 min 0 W/m 22,5 km/h (4 Bft) 95,74 %
22.12.2022 20:38 9,6 C 8,9 C 6,7 C 98 % 1003,9 hPa 0,0 l/m 0 min 0 min 0 W/m 16,1 km/h (3 Bft) 97,87 %
22.12.2022 20:40 9,6 C 8,9 C 6,7 C 98 % 1003,9 hPa 0,0 l/m 0 min 0 min 0 W/m 16,1 km/h (3 Bft) 97,87 %
22.12.2022 20:42 9,7 C 8,9 C 6,7 C 98 % 1003,9 hPa 0,0 l/m 0 min 0 min 0 W/m 19,3 km/h (3 Bft) 97,87 %
22.12.2022 20:44 9,7 C 8,9 C 7,2 C 98 % 1003,9 hPa 0,0 l/m 0 min 0 min 0 W/m 16,1 km/h (3 Bft) 97,83 %
22.12.2022 20:46 9,7 C 8,9 C 7,2 C 98 % 1003,9 hPa 0,0 l/m 0 min 0 min 0 W/m 19,3 km/h (3 Bft) 100,00 %
22.12.2022 20:48 9,7 C 9,4 C 7,2 C 99 % 1003,9 hPa 0,0 l/m 0 min 0 min 0 W/m 22,5 km/h (4 Bft) 95,74 %
22.12.2022 20:50 9,8 C 9,4 C 7,2 C 99 % 1003,9 hPa 0,0 l/m 0 min 0 min 0 W/m 12,9 km/h (3 Bft) 100,00 %
22.12.2022 20:52 9,8 C 9,4 C 7,2 C 99 % 1003,9 hPa 0,0 l/m 0 min 0 min 0 W/m 16,1 km/h (3 Bft) 100,00 %
22.12.2022 20:54 9,8 C 9,4 C 7,2 C 99 % 1003,9 hPa 0,0 l/m 0 min 0 min 0 W/m 16,1 km/h (3 Bft) 100,00 %
22.12.2022 20:56 9,8 C 9,4 C 7,2 C 99 % 1004,0 hPa 0,0 l/m 0 min 0 min 0 W/m 19,3 km/h (3 Bft) 100,00 %
22.12.2022 20:58 9,9 C 9,4 C 7,2 C 99 % 1003,9 hPa 0,0 l/m 0 min 0 min 0 W/m 16,1 km/h (3 Bft) 100,00 %
22.12.2022 21:00 9,9 C 9,4 C 7,2 C 99 % 1003,9 hPa 0,0 l/m 0 min 0 min 0 W/m 19,3 km/h (3 Bft) 100,00 %
22.12.2022 21:02 9,9 C 9,4 C 7,2 C 99 % 1003,9 hPa 0,0 l/m 0 min 0 min 0 W/m 9,7 km/h (2 Bft) 100,00 %
22.12.2022 21:04 9,9 C 9,4 C 7,2 C 99 % 1004,0 hPa 0,0 l/m 0 min 0 min 0 W/m 16,1 km/h (3 Bft) 95,74 %
22.12.2022 21:06 9,9 C 9,4 C 7,2 C 99 % 1004,0 hPa 0,0 l/m 0 min 0 min 0 W/m 9,7 km/h (2 Bft) 91,49 %
22.12.2022 21:08 9,9 C 9,4 C 7,2 C 99 % 1003,9 hPa 0,0 l/m 0 min 2 min 0 W/m 25,7 km/h (4 Bft) 97,87 %
22.12.2022 21:10 9,9 C 9,4 C 7,2 C 99 % 1003,9 hPa 0,0 l/m 0 min 2 min 0 W/m 12,9 km/h (3 Bft) 95,74 %
22.12.2022 21:12 9,9 C 9,4 C 7,2 C 99 % 1003,9 hPa 0,0 l/m 0 min 2 min 0 W/m 12,9 km/h (3 Bft) 93,48 %
22.12.2022 21:14 9,9 C 9,4 C 7,2 C 99 % 1003,9 hPa 0,0 l/m 0 min 2 min 0 W/m 16,1 km/h (3 Bft) 85,11 %
22.12.2022 21:16 9,9 C 9,4 C 7,2 C 99 % 1003,9 hPa 0,0 l/m 0 min 0 min 0 W/m 16,1 km/h (3 Bft) 91,49 %
22.12.2022 21:18 9,9 C 9,4 C 7,2 C 99 % 1003,9 hPa 0,0 l/m 0 min 0 min 0 W/m 12,9 km/h (3 Bft) 82,98 %
22.12.2022 21:20 9,9 C 9,4 C 7,2 C 99 % 1003,9 hPa 0,0 l/m 0 min 2 min 0 W/m 19,3 km/h (3 Bft) 85,11 %
22.12.2022 21:22 10,0 C 9,4 C 7,2 C 99 % 1003,9 hPa 0,0 l/m 0 min 0 min 0 W/m 19,3 km/h (3 Bft) 78,72 %
22.12.2022 21:24 10,0 C 9,4 C 7,2 C 99 % 1003,9 hPa 0,0 l/m 0 min 2 min 0 W/m 41,8 km/h (6 Bft) 84,78 %
22.12.2022 21:26 10,0 C 9,4 C 7,2 C 99 % 1003,9 hPa 0,0 l/m 0 min 0 min 0 W/m 19,3 km/h (3 Bft) 85,11 %
22.12.2022 21:28 10,0 C 9,4 C 7,2 C 99 % 1003,9 hPa 0,0 l/m 0 min 0 min 0 W/m 16,1 km/h (3 Bft) 95,74 %
22.12.2022 21:30 10,0 C 9,4 C 7,2 C 99 % 1003,9 hPa 0,0 l/m 0 min 0 min 0 W/m 12,9 km/h (3 Bft) 93,62 %
22.12.2022 21:32 10,0 C 9,4 C 7,2 C 99 % 1003,9 hPa 0,0 l/m 0 min 0 min 0 W/m 19,3 km/h (3 Bft) 93,62 %
22.12.2022 21:34 10,0 C 9,4 C 7,2 C 99 % 1003,8 hPa 0,0 l/m 0 min 0 min 0 W/m 16,1 km/h (3 Bft) 93,62 %
22.12.2022 21:36 10,0 C 9,4 C 7,2 C 99 % 1003,9 hPa 0,0 l/m 0 min 0 min 0 W/m 22,5 km/h (4 Bft) 93,62 %
22.12.2022 21:38 10,0 C 9,4 C 7,2 C 99 % 1003,9 hPa 0,0 l/m 0 min 0 min 0 W/m 12,9 km/h (3 Bft) 93,48 %
22.12.2022 21:40 10,1 C 9,4 C 7,2 C 99 % 1003,9 hPa 0,0 l/m 0 min 0 min 0 W/m 16,1 km/h (3 Bft) 95,74 %
22.12.2022 21:42 10,0 C 9,4 C 7,2 C 99 % 1003,9 hPa 0,0 l/m 0 min 0 min 0 W/m 16,1 km/h (3 Bft) 93,62 %
22.12.2022 21:44 10,0 C 9,4 C 7,2 C 99 % 1003,8 hPa 0,0 l/m 0 min 0 min 0 W/m 9,7 km/h (2 Bft) 95,74 %
22.12.2022 21:46 10,0 C 9,4 C 7,2 C 99 % 1003,9 hPa 0,0 l/m 0 min 0 min 0 W/m 12,9 km/h (3 Bft) 97,87 %
22.12.2022 21:48 10,0 C 9,4 C 7,2 C 99 % 1003,9 hPa 0,0 l/m 0 min 0 min 0 W/m 9,7 km/h (2 Bft) 93,62 %
22.12.2022 21:50 10,0 C 9,4 C 7,2 C 99 % 1003,9 hPa 0,0 l/m 0 min 0 min 0 W/m 9,7 km/h (2 Bft) 91,30 %
22.12.2022 21:52 10,0 C 9,4 C 7,2 C 99 % 1003,9 hPa 0,0 l/m 0 min 0 min 0 W/m 12,9 km/h (3 Bft) 93,62 %
22.12.2022 21:54 10,0 C 9,4 C 7,2 C 99 % 1003,9 hPa 0,2 l/m 0 min 0 min 0 W/m 19,3 km/h (3 Bft) 89,36 %
22.12.2022 21:56 10,0 C 9,4 C 7,2 C 99 % 1003,9 hPa 0,0 l/m 0 min 0 min 0 W/m 9,7 km/h (2 Bft) 97,87 %
22.12.2022 21:58 10,0 C 9,4 C 7,2 C 99 % 1003,9 hPa 0,0 l/m 0 min 0 min 0 W/m 12,9 km/h (3 Bft) 95,74 %
22.12.2022 22:00 10,1 C 9,4 C 7,2 C 99 % 1003,9 hPa 0,0 l/m 0 min 0 min 0 W/m 6,4 km/h (2 Bft) 93,62 %
22.12.2022 22:02 10,0 C 9,4 C 7,2 C 99 % 1003,9 hPa 0,0 l/m 0 min 0 min 0 W/m 9,7 km/h (2 Bft) 97,83 %
22.12.2022 22:04 10,0 C 9,4 C 7,2 C 99 % 1003,9 hPa 0,0 l/m 0 min 0 min 0 W/m 9,7 km/h (2 Bft) 93,62 %
22.12.2022 22:06 10,0 C 9,4 C 7,2 C 99 % 1004,0 hPa 0,0 l/m 0 min 2 min 0 W/m 6,4 km/h (2 Bft) 95,83 %
22.12.2022 22:08 10,0 C 9,4 C 7,2 C 99 % 1003,9 hPa 0,0 l/m 0 min 2 min 0 W/m 12,9 km/h (3 Bft) 95,74 %
22.12.2022 22:10 10,0 C 9,4 C 7,2 C 99 % 1004,0 hPa 0,0 l/m 0 min 2 min 0 W/m 9,7 km/h (2 Bft) 94,29 %
22.12.2022 22:12 10,0 C 9,4 C 7,2 C 99 % 1003,9 hPa 0,0 l/m 0 min 0 min 0 W/m 16,1 km/h (3 Bft) 97,87 %
22.12.2022 22:14 10,0 C 9,4 C 7,2 C 99 % 1003,9 hPa 0,0 l/m 0 min 0 min 0 W/m 12,9 km/h (3 Bft) 95,74 %
22.12.2022 22:16 10,0 C 9,4 C 7,2 C 99 % 1003,9 hPa 0,0 l/m 0 min 0 min 0 W/m 12,9 km/h (3 Bft) 97,87 %
22.12.2022 22:18 10,0 C 9,4 C 7,2 C 99 % 1003,8 hPa 0,0 l/m 0 min 0 min 0 W/m 6,4 km/h (2 Bft) 96,08 %
22.12.2022 22:20 10,0 C 9,4 C 7,2 C 99 % 1003,9 hPa 0,0 l/m 0 min 0 min 0 W/m 12,9 km/h (3 Bft) 89,36 %
22.12.2022 22:22 10,0 C 9,4 C 7,2 C 99 % 1003,9 hPa 0,0 l/m 0 min 0 min 0 W/m 12,9 km/h (3 Bft) 97,87 %
22.12.2022 22:24 10,0 C 9,4 C 7,2 C 99 % 1003,9 hPa 0,0 l/m 0 min 0 min 0 W/m 6,4 km/h (2 Bft) 95,74 %
22.12.2022 22:26 10,0 C 9,4 C 7,2 C 99 % 1003,8 hPa 0,0 l/m 0 min 0 min 0 W/m 12,9 km/h (3 Bft) 93,48 %
22.12.2022 22:28 10,0 C 9,4 C 7,2 C 99 % 1003,9 hPa 0,0 l/m 0 min 0 min 0 W/m 12,9 km/h (3 Bft) 97,87 %
22.12.2022 22:30 10,0 C 9,4 C 7,2 C 99 % 1003,9 hPa 0,0 l/m 0 min 0 min 0 W/m 6,4 km/h (2 Bft) 95,74 %
22.12.2022 22:32 10,0 C 9,4 C 7,2 C 98 % 1003,8 hPa 0,0 l/m 0 min 0 min 0 W/m 12,9 km/h (3 Bft) 95,74 %
22.12.2022 22:34 9,9 C 9,4 C 7,2 C 98 % 1003,9 hPa 0,0 l/m 0 min 0 min 0 W/m 16,1 km/h (3 Bft) 91,49 %
22.12.2022 22:36 10,0 C 9,4 C 7,2 C 98 % 1003,8 hPa 0,0 l/m 0 min 0 min 0 W/m 6,4 km/h (2 Bft) 95,74 %
22.12.2022 22:38 10,0 C 9,4 C 7,2 C 98 % 1003,9 hPa 0,0 l/m 0 min 0 min 0 W/m 9,7 km/h (2 Bft) 97,87 %
22.12.2022 22:40 10,0 C 9,4 C 7,2 C 98 % 1003,9 hPa 0,0 l/m 0 min 0 min 0 W/m 16,1 km/h (3 Bft) 95,65 %
22.12.2022 22:42 10,0 C 9,4 C 7,2 C 98 % 1003,9 hPa 0,0 l/m 0 min 0 min 0 W/m 12,9 km/h (3 Bft) 82,98 %
22.12.2022 22:44 9,9 C 9,4 C 7,2 C 98 % 1003,9 hPa 0,0 l/m 0 min 0 min 0 W/m 9,7 km/h (2 Bft) 97,87 %
22.12.2022 22:46 9,9 C 9,4 C 7,2 C 98 % 1003,9 hPa 0,0 l/m 0 min 0 min 0 W/m 6,4 km/h (2 Bft) 61,70 %
22.12.2022 22:48 9,9 C 9,4 C 7,2 C 98 % 1003,9 hPa 0,0 l/m 0 min 0 min 0 W/m 6,4 km/h (2 Bft) 78,72 %
22.12.2022 22:50 9,9 C 9,4 C 7,2 C 98 % 1003,9 hPa 0,0 l/m 0 min 0 min 0 W/m 6,4 km/h (2 Bft) 93,62 %
22.12.2022 22:52 9,9 C 9,4 C 7,2 C 98 % 1003,9 hPa 0,0 l/m 0 min 0 min 0 W/m 9,7 km/h (2 Bft) 97,83 %
22.12.2022 22:54 9,9 C 9,4 C 7,2 C 98 % 1003,9 hPa 0,0 l/m 0 min 0 min 0 W/m 22,5 km/h (4 Bft) 95,92 %
22.12.2022 22:56 9,9 C 9,4 C 7,2 C 98 % 1003,8 hPa 0,0 l/m 0 min 0 min 0 W/m 16,1 km/h (3 Bft) 97,83 %
22.12.2022 22:58 9,9 C 9,4 C 7,2 C 98 % 1003,8 hPa 0,0 l/m 0 min 0 min 0 W/m 12,9 km/h (3 Bft) 97,87 %
22.12.2022 23:00 9,9 C 9,4 C 7,2 C 98 % 1003,8 hPa 0,0 l/m 0 min 0 min 0 W/m 12,9 km/h (3 Bft) 100,00 %
22.12.2022 23:02 9,9 C 9,4 C 7,2 C 98 % 1003,8 hPa 0,0 l/m 0 min 0 min 0 W/m 16,1 km/h (3 Bft) 97,87 %
22.12.2022 23:04 9,9 C 9,4 C 7,2 C 98 % 1003,8 hPa 0,0 l/m 0 min 0 min 0 W/m 19,3 km/h (3 Bft) 100,00 %
22.12.2022 23:06 9,9 C 9,4 C 7,2 C 98 % 1003,8 hPa 0,0 l/m 0 min 0 min 0 W/m 19,3 km/h (3 Bft) 97,87 %
22.12.2022 23:08 9,9 C 9,4 C 7,2 C 98 % 1003,8 hPa 0,0 l/m 0 min 0 min 0 W/m 16,1 km/h (3 Bft) 95,74 %
22.12.2022 23:10 9,9 C 9,4 C 7,2 C 98 % 1003,8 hPa 0,0 l/m 0 min 0 min 0 W/m 12,9 km/h (3 Bft) 97,83 %
22.12.2022 23:12 9,9 C 9,4 C 7,2 C 98 % 1003,8 hPa 0,0 l/m 0 min 0 min 0 W/m 12,9 km/h (3 Bft) 97,87 %
22.12.2022 23:14 9,9 C 9,4 C 7,2 C 98 % 1003,8 hPa 0,0 l/m 0 min 0 min 0 W/m 9,7 km/h (2 Bft) 95,74 %
22.12.2022 23:16 9,9 C 9,4 C 7,2 C 98 % 1003,9 hPa 0,0 l/m 0 min 0 min 0 W/m 12,9 km/h (3 Bft) 91,49 %
22.12.2022 23:18 9,9 C 9,4 C 7,2 C 98 % 1003,9 hPa 0,0 l/m 0 min 0 min 0 W/m 16,1 km/h (3 Bft) 91,49 %
22.12.2022 23:20 9,9 C 9,4 C 7,2 C 98 % 1003,9 hPa 0,0 l/m 0 min 0 min 0 W/m 6,4 km/h (2 Bft) 95,74 %
22.12.2022 23:22 9,9 C 9,4 C 7,2 C 98 % 1003,9 hPa 0,0 l/m 0 min 0 min 0 W/m 12,9 km/h (3 Bft) 89,13 %
22.12.2022 23:24 9,9 C 9,4 C 7,2 C 98 % 1003,9 hPa 0,0 l/m 0 min 0 min 0 W/m 6,4 km/h (2 Bft) 93,62 %
22.12.2022 23:26 9,9 C 9,4 C 7,2 C 98 % 1003,9 hPa 0,0 l/m 0 min 0 min 0 W/m 19,3 km/h (3 Bft) 95,74 %
22.12.2022 23:28 9,9 C 9,4 C 7,2 C 98 % 1003,9 hPa 0,0 l/m 0 min 0 min 0 W/m 16,1 km/h (3 Bft) 93,62 %
22.12.2022 23:30 9,9 C 9,4 C 7,2 C 98 % 1003,9 hPa 0,0 l/m 0 min 0 min 0 W/m 12,9 km/h (3 Bft) 85,11 %
22.12.2022 23:32 9,9 C 9,4 C 7,2 C 98 % 1003,8 hPa 0,0 l/m 0 min 0 min 0 W/m 16,1 km/h (3 Bft) 95,74 %
22.12.2022 23:34 9,9 C 9,4 C 7,2 C 98 % 1003,8 hPa 0,0 l/m 0 min 0 min 0 W/m 22,5 km/h (4 Bft) 97,87 %
22.12.2022 23:36 9,9 C 9,4 C 7,2 C 98 % 1003,8 hPa 0,0 l/m 0 min 0 min 0 W/m 16,1 km/h (3 Bft) 97,83 %
22.12.2022 23:38 9,9 C 9,4 C 7,2 C 98 % 1003,8 hPa 0,0 l/m 0 min 0 min 0 W/m 19,3 km/h (3 Bft) 97,87 %
22.12.2022 23:40 9,9 C 9,4 C 7,2 C 98 % 1003,8 hPa 0,0 l/m 0 min 0 min 0 W/m 16,1 km/h (3 Bft) 97,87 %
22.12.2022 23:42 9,9 C 9,4 C 7,2 C 98 % 1003,8 hPa 0,0 l/m 0 min 0 min 0 W/m 22,5 km/h (4 Bft) 100,00 %
22.12.2022 23:44 9,9 C 9,4 C 7,2 C 98 % 1003,8 hPa 0,0 l/m 0 min 0 min 0 W/m 19,3 km/h (3 Bft) 100,00 %
22.12.2022 23:46 9,8 C 9,4 C 7,2 C 98 % 1003,9 hPa 0,0 l/m 0 min 0 min 0 W/m 12,9 km/h (3 Bft) 95,74 %
22.12.2022 23:48 9,8 C 9,4 C 7,2 C 98 % 1003,9 hPa 0,0 l/m 0 min 0 min 0 W/m 19,3 km/h (3 Bft) 100,00 %
22.12.2022 23:50 9,8 C 9,4 C 7,2 C 98 % 1003,8 hPa 0,0 l/m 0 min 0 min 0 W/m 16,1 km/h (3 Bft) 100,00 %
22.12.2022 23:52 9,8 C 9,4 C 7,2 C 98 % 1003,8 hPa 0,0 l/m 0 min 0 min 0 W/m 12,9 km/h (3 Bft) 100,00 %
22.12.2022 23:54 9,8 C 9,4 C 7,2 C 98 % 1003,8 hPa 0,0 l/m 0 min 0 min 0 W/m 16,1 km/h (3 Bft) 100,00 %
22.12.2022 23:56 9,8 C 9,4 C 7,2 C 98 % 1003,9 hPa 0,0 l/m 0 min 0 min 0 W/m 12,9 km/h (3 Bft) 97,87 %
22.12.2022 23:58 9,8 C 9,4 C 7,2 C 98 % 1003,9 hPa 0,0 l/m 0 min 0 min 0 W/m 9,7 km/h (2 Bft) 100,00 %
_ Min-Zeit 00:00 00:00 00:00 14:18 06:18 - - - - 01:42 17:24
Minimum _ 8,0 C 7,2 C 5,6 C 88 % 1001,6 hPa - - - - 0,0 km/h (0 Bft) 46,15 %
_ Max-Zeit 13:50 12:42 09:50 08:16 14:52 06:16 11:38 02:17 13:06 21:24 00:00
Maximum _ 10,3 C 11,1 C 7,2 C 100 % 1007,6 hPa 0,4 l/m 2 min 5 min 320 W/m 41,8 km/h
S (6 Bft)
100,00 %
Durchschnitt _ 9,0 C 8,5 C 6,5 C 97 % 1004,7 hPa #8,2 l/m #1:24 h #5:30 h 81 W/m 7,7 km/h (2 Bft) 96,49 %
© 2022 W. Hausmann